<?xml version="1.0" encoding="UTF-8" standalone="no" ?>
<gpx xmlns="http://www.topografix.com/GPX/1/1" xmlns:xsi="http://www.w3.org/2001/XMLSchema-instance" xsi:schemaLocation="http://www.topografix.com/GPX/1/1 http://www.topografix.com/GPX/1/1/gpx.xsd" version="1.1" creator="VisuGPX - https://www.visugpx.com">
  <metadata>
    <name>Etape 05b</name>
    <desc><![CDATA[	Kiwanis ViaRhona 2015
	Plus d\'info :
	[url]http://www.kiwanis-valence.com/[/url] 
	[url]https://www.facebook.com/KiwanisValence[/url] 
	[url]https://www.facebook.com/events/1419020335084420/[/url]
]]></desc>
  </metadata>
  <trk>
    <name><![CDATA[Sablons_Tournon-parcours]]></name>
    <desc><![CDATA[Total: 34.7km]]></desc>
    <trkseg>
      <trkpt lat="45.31191" lon="4.781">
        <ele>136.85</ele>
        <time>2015-07-11T12:00:00Z</time>
      </trkpt>
      <trkpt lat="45.31193" lon="4.78114">
        <ele>136.93</ele>
        <time>2015-07-11T12:00:04Z</time>
      </trkpt>
      <trkpt lat="45.3116" lon="4.78211">
        <ele>136.17562808387</ele>
        <time>2015-07-11T12:00:34Z</time>
      </trkpt>
      <trkpt lat="45.31145" lon="4.78251">
        <ele>135.65559706485</ele>
        <time>2015-07-11T12:00:47Z</time>
      </trkpt>
      <trkpt lat="45.31134" lon="4.78288">
        <ele>135.43164351218</ele>
        <time>2015-07-11T12:00:59Z</time>
      </trkpt>
      <trkpt lat="45.3113" lon="4.783">
        <ele>135.44</ele>
        <time>2015-07-11T12:01:02Z</time>
      </trkpt>
      <trkpt lat="45.31127" lon="4.78312">
        <ele>135.49256271691</ele>
        <time>2015-07-11T12:01:06Z</time>
      </trkpt>
      <trkpt lat="45.31118" lon="4.78339">
        <ele>135.71598811928</ele>
        <time>2015-07-11T12:01:14Z</time>
      </trkpt>
      <trkpt lat="45.31113" lon="4.78357">
        <ele>135.85989339498</ele>
        <time>2015-07-11T12:01:20Z</time>
      </trkpt>
      <trkpt lat="45.31107" lon="4.78376">
        <ele>135.94011293802</ele>
        <time>2015-07-11T12:01:25Z</time>
      </trkpt>
      <trkpt lat="45.311" lon="4.78403">
        <ele>135.8</ele>
        <time>2015-07-11T12:01:34Z</time>
      </trkpt>
      <trkpt lat="45.31098" lon="4.78424">
        <ele>135.43750807376</ele>
        <time>2015-07-11T12:01:40Z</time>
      </trkpt>
      <trkpt lat="45.31101" lon="4.78455">
        <ele>134.76102386505</ele>
        <time>2015-07-11T12:01:48Z</time>
      </trkpt>
      <trkpt lat="45.31103" lon="4.78466">
        <ele>134.54028944312</ele>
        <time>2015-07-11T12:01:52Z</time>
      </trkpt>
      <trkpt lat="45.31109" lon="4.78478">
        <ele>134.33593149739</ele>
        <time>2015-07-11T12:01:56Z</time>
      </trkpt>
      <trkpt lat="45.31097" lon="4.78494">
        <ele>134.29</ele>
        <time>2015-07-11T12:02:02Z</time>
      </trkpt>
      <trkpt lat="45.31082" lon="4.78513">
        <ele>134.84269470957</ele>
        <time>2015-07-11T12:02:10Z</time>
      </trkpt>
      <trkpt lat="45.31078" lon="4.78518">
        <ele>135.07199200474</ele>
        <time>2015-07-11T12:02:13Z</time>
      </trkpt>
      <trkpt lat="45.31048" lon="4.78556">
        <ele>137.31593869496</ele>
        <time>2015-07-11T12:02:28Z</time>
      </trkpt>
      <trkpt lat="45.31046" lon="4.78561">
        <ele>137.56929017155</ele>
        <time>2015-07-11T12:02:30Z</time>
      </trkpt>
      <trkpt lat="45.31038" lon="4.78583">
        <ele>138.35</ele>
        <time>2015-07-11T12:02:37Z</time>
      </trkpt>
      <trkpt lat="45.31031" lon="4.78606">
        <ele>138.8085524417</ele>
        <time>2015-07-11T12:02:44Z</time>
      </trkpt>
      <trkpt lat="45.31031" lon="4.78606">
        <ele>138.81453598292</ele>
        <time>2015-07-11T12:02:44Z</time>
      </trkpt>
      <trkpt lat="45.31031" lon="4.78606">
        <ele>138.81453598292</ele>
        <time>2015-07-11T12:02:44Z</time>
      </trkpt>
      <trkpt lat="45.31031" lon="4.78606">
        <ele>138.81453598292</ele>
        <time>2015-07-11T12:02:44Z</time>
      </trkpt>
      <trkpt lat="45.31029" lon="4.78606">
        <ele>138.83502759863</ele>
        <time>2015-07-11T12:02:45Z</time>
      </trkpt>
      <trkpt lat="45.31029" lon="4.78606">
        <ele>138.83502759863</ele>
        <time>2015-07-11T12:02:45Z</time>
      </trkpt>
      <trkpt lat="45.31026" lon="4.78605">
        <ele>138.8727843924</ele>
        <time>2015-07-11T12:02:47Z</time>
      </trkpt>
      <trkpt lat="45.31018" lon="4.78599">
        <ele>138.89216259538</ele>
        <time>2015-07-11T12:02:50Z</time>
      </trkpt>
      <trkpt lat="45.31015" lon="4.78598">
        <ele>138.87555180232</ele>
        <time>2015-07-11T12:02:52Z</time>
      </trkpt>
      <trkpt lat="45.31011" lon="4.78601">
        <ele>138.84268966446</ele>
        <time>2015-07-11T12:02:53Z</time>
      </trkpt>
      <trkpt lat="45.31007" lon="4.78605">
        <ele>138.76363180685</ele>
        <time>2015-07-11T12:02:55Z</time>
      </trkpt>
      <trkpt lat="45.31007" lon="4.78605">
        <ele>138.75596505223</ele>
        <time>2015-07-11T12:02:55Z</time>
      </trkpt>
      <trkpt lat="45.31007" lon="4.78605">
        <ele>138.75596505223</ele>
        <time>2015-07-11T12:02:55Z</time>
      </trkpt>
      <trkpt lat="45.31002" lon="4.78612">
        <ele>138.59516894333</ele>
        <time>2015-07-11T12:02:58Z</time>
      </trkpt>
      <trkpt lat="45.30986" lon="4.78636">
        <ele>137.73</ele>
        <time>2015-07-11T12:03:07Z</time>
      </trkpt>
      <trkpt lat="45.30953" lon="4.78688">
        <ele>134.653129312</ele>
        <time>2015-07-11T12:03:27Z</time>
      </trkpt>
      <trkpt lat="45.30932" lon="4.78718">
        <ele>133.21674497075</ele>
        <time>2015-07-11T12:03:39Z</time>
      </trkpt>
      <trkpt lat="45.30926" lon="4.78728">
        <ele>132.99</ele>
        <time>2015-07-11T12:03:43Z</time>
      </trkpt>
      <trkpt lat="45.309" lon="4.7876">
        <ele>133.23729110208</ele>
        <time>2015-07-11T12:03:57Z</time>
      </trkpt>
      <trkpt lat="45.30887" lon="4.78774">
        <ele>133.7</ele>
        <time>2015-07-11T12:04:03Z</time>
      </trkpt>
      <trkpt lat="45.30865" lon="4.78826">
        <ele>135.05442803903</ele>
        <time>2015-07-11T12:04:20Z</time>
      </trkpt>
      <trkpt lat="45.30859" lon="4.78845">
        <ele>135.52355722594</ele>
        <time>2015-07-11T12:04:26Z</time>
      </trkpt>
      <trkpt lat="45.30839" lon="4.78887">
        <ele>136.42989485793</ele>
        <time>2015-07-11T12:04:41Z</time>
      </trkpt>
      <trkpt lat="45.30833" lon="4.78897">
        <ele>136.60425911085</ele>
        <time>2015-07-11T12:04:44Z</time>
      </trkpt>
      <trkpt lat="45.3082" lon="4.78916">
        <ele>136.83</ele>
        <time>2015-07-11T12:04:52Z</time>
      </trkpt>
      <trkpt lat="45.308" lon="4.78943">
        <ele>136.9141581832</ele>
        <time>2015-07-11T12:05:03Z</time>
      </trkpt>
      <trkpt lat="45.30779" lon="4.78977">
        <ele>136.99445029053</ele>
        <time>2015-07-11T12:05:15Z</time>
      </trkpt>
      <trkpt lat="45.30777" lon="4.78984">
        <ele>137.04225013685</ele>
        <time>2015-07-11T12:05:18Z</time>
      </trkpt>
      <trkpt lat="45.30769" lon="4.79003">
        <ele>137.29</ele>
        <time>2015-07-11T12:05:24Z</time>
      </trkpt>
      <trkpt lat="45.30768" lon="4.7901">
        <ele>137.41491265382</ele>
        <time>2015-07-11T12:05:26Z</time>
      </trkpt>
      <trkpt lat="45.30758" lon="4.79058">
        <ele>138.42</ele>
        <time>2015-07-11T12:05:40Z</time>
      </trkpt>
      <trkpt lat="45.30749" lon="4.79116">
        <ele>138.78214729643</ele>
        <time>2015-07-11T12:05:57Z</time>
      </trkpt>
      <trkpt lat="45.30739" lon="4.79167">
        <ele>138.34423584225</ele>
        <time>2015-07-11T12:06:12Z</time>
      </trkpt>
      <trkpt lat="45.30736" lon="4.79199">
        <ele>137.89524702286</ele>
        <time>2015-07-11T12:06:21Z</time>
      </trkpt>
      <trkpt lat="45.30736" lon="4.79212">
        <ele>137.7</ele>
        <time>2015-07-11T12:06:24Z</time>
      </trkpt>
      <trkpt lat="45.30739" lon="4.79252">
        <ele>137.13</ele>
        <time>2015-07-11T12:06:36Z</time>
      </trkpt>
      <trkpt lat="45.30739" lon="4.79366">
        <ele>137.28059406513</ele>
        <time>2015-07-11T12:07:08Z</time>
      </trkpt>
      <trkpt lat="45.30745" lon="4.79375">
        <ele>137.46053095311</ele>
        <time>2015-07-11T12:07:11Z</time>
      </trkpt>
      <trkpt lat="45.30749" lon="4.79414">
        <ele>138.2866716516</ele>
        <time>2015-07-11T12:07:23Z</time>
      </trkpt>
      <trkpt lat="45.3075" lon="4.79421">
        <ele>138.46386969004</ele>
        <time>2015-07-11T12:07:25Z</time>
      </trkpt>
      <trkpt lat="45.3075" lon="4.79421">
        <ele>138.46386969004</ele>
        <time>2015-07-11T12:07:25Z</time>
      </trkpt>
      <trkpt lat="45.3075" lon="4.79421">
        <ele>138.46386969004</ele>
        <time>2015-07-11T12:07:25Z</time>
      </trkpt>
      <trkpt lat="45.3075" lon="4.79421">
        <ele>138.46386969004</ele>
        <time>2015-07-11T12:07:25Z</time>
      </trkpt>
      <trkpt lat="45.3075" lon="4.79421">
        <ele>138.46386969004</ele>
        <time>2015-07-11T12:07:25Z</time>
      </trkpt>
      <trkpt lat="45.3075" lon="4.79421">
        <ele>138.46386969004</ele>
        <time>2015-07-11T12:07:25Z</time>
      </trkpt>
      <trkpt lat="45.3075" lon="4.79421">
        <ele>138.46386969004</ele>
        <time>2015-07-11T12:07:25Z</time>
      </trkpt>
      <trkpt lat="45.3075" lon="4.79424">
        <ele>138.54316495739</ele>
        <time>2015-07-11T12:07:26Z</time>
      </trkpt>
      <trkpt lat="45.3075" lon="4.79424">
        <ele>138.54316495739</ele>
        <time>2015-07-11T12:07:26Z</time>
      </trkpt>
      <trkpt lat="45.3074" lon="4.7943">
        <ele>138.96</ele>
        <time>2015-07-11T12:07:30Z</time>
      </trkpt>
      <trkpt lat="45.30719" lon="4.79445">
        <ele>140.04196895743</ele>
        <time>2015-07-11T12:07:39Z</time>
      </trkpt>
      <trkpt lat="45.30691" lon="4.79466">
        <ele>141.50244503907</ele>
        <time>2015-07-11T12:07:52Z</time>
      </trkpt>
      <trkpt lat="45.30674" lon="4.7948">
        <ele>142.2212385788</ele>
        <time>2015-07-11T12:08:00Z</time>
      </trkpt>
      <trkpt lat="45.3067" lon="4.79482">
        <ele>142.32246161282</ele>
        <time>2015-07-11T12:08:01Z</time>
      </trkpt>
      <trkpt lat="45.30667" lon="4.79484">
        <ele>142.40479534588</ele>
        <time>2015-07-11T12:08:03Z</time>
      </trkpt>
      <trkpt lat="45.30664" lon="4.79486">
        <ele>142.47605835061</ele>
        <time>2015-07-11T12:08:04Z</time>
      </trkpt>
      <trkpt lat="45.30661" lon="4.79489">
        <ele>142.54</ele>
        <time>2015-07-11T12:08:06Z</time>
      </trkpt>
      <trkpt lat="45.30646" lon="4.79502">
        <ele>142.6631064601</ele>
        <time>2015-07-11T12:08:13Z</time>
      </trkpt>
      <trkpt lat="45.30634" lon="4.79518">
        <ele>142.50452749881</ele>
        <time>2015-07-11T12:08:19Z</time>
      </trkpt>
      <trkpt lat="45.30632" lon="4.79522">
        <ele>142.43994358068</ele>
        <time>2015-07-11T12:08:21Z</time>
      </trkpt>
      <trkpt lat="45.3063" lon="4.79526">
        <ele>142.36455635391</ele>
        <time>2015-07-11T12:08:22Z</time>
      </trkpt>
      <trkpt lat="45.30628" lon="4.79531">
        <ele>142.27447542608</ele>
        <time>2015-07-11T12:08:24Z</time>
      </trkpt>
      <trkpt lat="45.30626" lon="4.79534">
        <ele>142.19011843452</ele>
        <time>2015-07-11T12:08:25Z</time>
      </trkpt>
      <trkpt lat="45.30621" lon="4.79556">
        <ele>141.62557036782</ele>
        <time>2015-07-11T12:08:31Z</time>
      </trkpt>
      <trkpt lat="45.30619" lon="4.79582">
        <ele>140.72</ele>
        <time>2015-07-11T12:08:39Z</time>
      </trkpt>
      <trkpt lat="45.30619" lon="4.79586">
        <ele>140.55286882402</ele>
        <time>2015-07-11T12:08:40Z</time>
      </trkpt>
      <trkpt lat="45.3062" lon="4.7959">
        <ele>140.36095820479</ele>
        <time>2015-07-11T12:08:41Z</time>
      </trkpt>
      <trkpt lat="45.3062" lon="4.79594">
        <ele>140.17253701179</ele>
        <time>2015-07-11T12:08:42Z</time>
      </trkpt>
      <trkpt lat="45.30621" lon="4.79599">
        <ele>139.98422775173</ele>
        <time>2015-07-11T12:08:43Z</time>
      </trkpt>
      <trkpt lat="45.30627" lon="4.79626">
        <ele>138.65772900901</ele>
        <time>2015-07-11T12:08:52Z</time>
      </trkpt>
      <trkpt lat="45.30642" lon="4.79672">
        <ele>136.49</ele>
        <time>2015-07-11T12:09:06Z</time>
      </trkpt>
      <trkpt lat="45.30654" lon="4.79707">
        <ele>135.43735421308</ele>
        <time>2015-07-11T12:09:17Z</time>
      </trkpt>
      <trkpt lat="45.30671" lon="4.79753">
        <ele>135.0781954616</ele>
        <time>2015-07-11T12:09:32Z</time>
      </trkpt>
      <trkpt lat="45.30683" lon="4.79785">
        <ele>135.53</ele>
        <time>2015-07-11T12:09:42Z</time>
      </trkpt>
      <trkpt lat="45.30689" lon="4.798">
        <ele>135.95842505605</ele>
        <time>2015-07-11T12:09:47Z</time>
      </trkpt>
      <trkpt lat="45.30707" lon="4.79848">
        <ele>137.73182169263</ele>
        <time>2015-07-11T12:10:02Z</time>
      </trkpt>
      <trkpt lat="45.3072" lon="4.79882">
        <ele>139</ele>
        <time>2015-07-11T12:10:13Z</time>
      </trkpt>
      <trkpt lat="45.30737" lon="4.79927">
        <ele>139.98715722597</ele>
        <time>2015-07-11T12:10:27Z</time>
      </trkpt>
      <trkpt lat="45.30751" lon="4.7996">
        <ele>139.90594193797</ele>
        <time>2015-07-11T12:10:38Z</time>
      </trkpt>
      <trkpt lat="45.30755" lon="4.79973">
        <ele>139.67</ele>
        <time>2015-07-11T12:10:42Z</time>
      </trkpt>
      <trkpt lat="45.30765" lon="4.79999">
        <ele>138.7632724773</ele>
        <time>2015-07-11T12:10:51Z</time>
      </trkpt>
      <trkpt lat="45.30766" lon="4.80003">
        <ele>138.63553339083</ele>
        <time>2015-07-11T12:10:52Z</time>
      </trkpt>
      <trkpt lat="45.30769" lon="4.80015">
        <ele>138.13084946423</ele>
        <time>2015-07-11T12:10:55Z</time>
      </trkpt>
      <trkpt lat="45.30772" lon="4.8003">
        <ele>137.48113966294</ele>
        <time>2015-07-11T12:11:00Z</time>
      </trkpt>
      <trkpt lat="45.3078" lon="4.80064">
        <ele>136.2</ele>
        <time>2015-07-11T12:11:10Z</time>
      </trkpt>
      <trkpt lat="45.30789" lon="4.80121">
        <ele>135.26136403642</ele>
        <time>2015-07-11T12:11:26Z</time>
      </trkpt>
      <trkpt lat="45.30792" lon="4.80153">
        <ele>135.26553752476</ele>
        <time>2015-07-11T12:11:35Z</time>
      </trkpt>
      <trkpt lat="45.30791" lon="4.80161">
        <ele>135.31077887705</ele>
        <time>2015-07-11T12:11:38Z</time>
      </trkpt>
      <trkpt lat="45.30789" lon="4.80168">
        <ele>135.367272188</ele>
        <time>2015-07-11T12:11:40Z</time>
      </trkpt>
      <trkpt lat="45.30784" lon="4.80174">
        <ele>135.43673923086</ele>
        <time>2015-07-11T12:11:42Z</time>
      </trkpt>
      <trkpt lat="45.30779" lon="4.80177">
        <ele>135.51356243199</ele>
        <time>2015-07-11T12:11:45Z</time>
      </trkpt>
      <trkpt lat="45.30775" lon="4.80179">
        <ele>135.58255708673</ele>
        <time>2015-07-11T12:11:46Z</time>
      </trkpt>
      <trkpt lat="45.30772" lon="4.8018">
        <ele>135.63309647094</ele>
        <time>2015-07-11T12:11:48Z</time>
      </trkpt>
      <trkpt lat="45.30769" lon="4.80178">
        <ele>135.6797916297</ele>
        <time>2015-07-11T12:11:49Z</time>
      </trkpt>
      <trkpt lat="45.30769" lon="4.80178">
        <ele>135.6797916297</ele>
        <time>2015-07-11T12:11:49Z</time>
      </trkpt>
      <trkpt lat="45.30769" lon="4.80178">
        <ele>135.6797916297</ele>
        <time>2015-07-11T12:11:49Z</time>
      </trkpt>
      <trkpt lat="45.30769" lon="4.80178">
        <ele>135.6797916297</ele>
        <time>2015-07-11T12:11:49Z</time>
      </trkpt>
      <trkpt lat="45.30769" lon="4.80178">
        <ele>135.6797916297</ele>
        <time>2015-07-11T12:11:49Z</time>
      </trkpt>
      <trkpt lat="45.30769" lon="4.80178">
        <ele>135.6797916297</ele>
        <time>2015-07-11T12:11:49Z</time>
      </trkpt>
      <trkpt lat="45.30769" lon="4.80178">
        <ele>135.6797916297</ele>
        <time>2015-07-11T12:11:49Z</time>
      </trkpt>
      <trkpt lat="45.30768" lon="4.80173">
        <ele>135.74</ele>
        <time>2015-07-11T12:11:50Z</time>
      </trkpt>
      <trkpt lat="45.30768" lon="4.80173">
        <ele>135.74</ele>
        <time>2015-07-11T12:11:50Z</time>
      </trkpt>
      <trkpt lat="45.30768" lon="4.80158">
        <ele>135.93517393453</ele>
        <time>2015-07-11T12:11:55Z</time>
      </trkpt>
      <trkpt lat="45.30766" lon="4.80149">
        <ele>136.05875990841</ele>
        <time>2015-07-11T12:11:57Z</time>
      </trkpt>
      <trkpt lat="45.30763" lon="4.80148">
        <ele>136.12328697439</ele>
        <time>2015-07-11T12:11:59Z</time>
      </trkpt>
      <trkpt lat="45.30752" lon="4.80154">
        <ele>136.33171645865</ele>
        <time>2015-07-11T12:12:03Z</time>
      </trkpt>
      <trkpt lat="45.30727" lon="4.8017">
        <ele>136.77</ele>
        <time>2015-07-11T12:12:14Z</time>
      </trkpt>
      <trkpt lat="45.30699" lon="4.8019">
        <ele>137.01929742594</ele>
        <time>2015-07-11T12:12:27Z</time>
      </trkpt>
      <trkpt lat="45.30672" lon="4.8021">
        <ele>137.08725934629</ele>
        <time>2015-07-11T12:12:39Z</time>
      </trkpt>
      <trkpt lat="45.30647" lon="4.80229">
        <ele>137.11</ele>
        <time>2015-07-11T12:12:50Z</time>
      </trkpt>
      <trkpt lat="45.30604" lon="4.8026">
        <ele>137.24741935551</ele>
        <time>2015-07-11T12:13:10Z</time>
      </trkpt>
      <trkpt lat="45.30571" lon="4.80284">
        <ele>137.39</ele>
        <time>2015-07-11T12:13:24Z</time>
      </trkpt>
      <trkpt lat="45.30544" lon="4.80304">
        <ele>137.51025488981</ele>
        <time>2015-07-11T12:13:37Z</time>
      </trkpt>
      <trkpt lat="45.30508" lon="4.8033">
        <ele>137.85</ele>
        <time>2015-07-11T12:13:53Z</time>
      </trkpt>
      <trkpt lat="45.30479" lon="4.80351">
        <ele>138.35867270261</ele>
        <time>2015-07-11T12:14:06Z</time>
      </trkpt>
      <trkpt lat="45.30474" lon="4.80355">
        <ele>138.44297079027</ele>
        <time>2015-07-11T12:14:08Z</time>
      </trkpt>
      <trkpt lat="45.30441" lon="4.80378">
        <ele>138.83361943534</ele>
        <time>2015-07-11T12:14:23Z</time>
      </trkpt>
      <trkpt lat="45.30413" lon="4.80393">
        <ele>138.6</ele>
        <time>2015-07-11T12:14:35Z</time>
      </trkpt>
      <trkpt lat="45.30386" lon="4.80397">
        <ele>137.80633113492</ele>
        <time>2015-07-11T12:14:46Z</time>
      </trkpt>
      <trkpt lat="45.30376" lon="4.80395">
        <ele>137.43000986967</ele>
        <time>2015-07-11T12:14:50Z</time>
      </trkpt>
      <trkpt lat="45.3035" lon="4.80379">
        <ele>136.51</ele>
        <time>2015-07-11T12:15:01Z</time>
      </trkpt>
      <trkpt lat="45.30317" lon="4.80349">
        <ele>135.98715935375</ele>
        <time>2015-07-11T12:15:17Z</time>
      </trkpt>
      <trkpt lat="45.30283" lon="4.80324">
        <ele>135.82</ele>
        <time>2015-07-11T12:15:32Z</time>
      </trkpt>
      <trkpt lat="45.30246" lon="4.80308">
        <ele>135.42367800547</ele>
        <time>2015-07-11T12:15:47Z</time>
      </trkpt>
      <trkpt lat="45.30208" lon="4.80303">
        <ele>135.09</ele>
        <time>2015-07-11T12:16:03Z</time>
      </trkpt>
      <trkpt lat="45.30179" lon="4.80313">
        <ele>135.1231523318</ele>
        <time>2015-07-11T12:16:15Z</time>
      </trkpt>
      <trkpt lat="45.30168" lon="4.8032">
        <ele>135.19042375496</ele>
        <time>2015-07-11T12:16:20Z</time>
      </trkpt>
      <trkpt lat="45.30152" lon="4.80333">
        <ele>135.30626444749</ele>
        <time>2015-07-11T12:16:27Z</time>
      </trkpt>
      <trkpt lat="45.30128" lon="4.8036">
        <ele>135.42</ele>
        <time>2015-07-11T12:16:39Z</time>
      </trkpt>
      <trkpt lat="45.30094" lon="4.80391">
        <ele>135.24055891393</ele>
        <time>2015-07-11T12:16:55Z</time>
      </trkpt>
      <trkpt lat="45.30088" lon="4.80396">
        <ele>135.18199159824</ele>
        <time>2015-07-11T12:16:58Z</time>
      </trkpt>
      <trkpt lat="45.30082" lon="4.80402">
        <ele>135.11348990494</ele>
        <time>2015-07-11T12:17:01Z</time>
      </trkpt>
      <trkpt lat="45.30076" lon="4.80407">
        <ele>135.04454350416</ele>
        <time>2015-07-11T12:17:04Z</time>
      </trkpt>
      <trkpt lat="45.3007" lon="4.80413">
        <ele>134.97352293763</ele>
        <time>2015-07-11T12:17:07Z</time>
      </trkpt>
      <trkpt lat="45.30064" lon="4.80419">
        <ele>134.90163428139</ele>
        <time>2015-07-11T12:17:10Z</time>
      </trkpt>
      <trkpt lat="45.30059" lon="4.80425">
        <ele>134.83</ele>
        <time>2015-07-11T12:17:13Z</time>
      </trkpt>
      <trkpt lat="45.30036" lon="4.80449">
        <ele>134.59727625338</ele>
        <time>2015-07-11T12:17:24Z</time>
      </trkpt>
      <trkpt lat="45.30008" lon="4.8048">
        <ele>134.58013747394</ele>
        <time>2015-07-11T12:17:38Z</time>
      </trkpt>
      <trkpt lat="45.29998" lon="4.80489">
        <ele>134.69</ele>
        <time>2015-07-11T12:17:43Z</time>
      </trkpt>
      <trkpt lat="45.29984" lon="4.80504">
        <ele>134.97549025481</ele>
        <time>2015-07-11T12:17:50Z</time>
      </trkpt>
      <trkpt lat="45.29949" lon="4.80541">
        <ele>135.83</ele>
        <time>2015-07-11T12:18:07Z</time>
      </trkpt>
      <trkpt lat="45.29919" lon="4.80572">
        <ele>136.09649444503</ele>
        <time>2015-07-11T12:18:22Z</time>
      </trkpt>
      <trkpt lat="45.29904" lon="4.80588">
        <ele>136.06301837602</ele>
        <time>2015-07-11T12:18:30Z</time>
      </trkpt>
      <trkpt lat="45.29897" lon="4.80595">
        <ele>136.02306201857</ele>
        <time>2015-07-11T12:18:33Z</time>
      </trkpt>
      <trkpt lat="45.29893" lon="4.80598">
        <ele>135.99806650827</ele>
        <time>2015-07-11T12:18:35Z</time>
      </trkpt>
      <trkpt lat="45.29882" lon="4.8061">
        <ele>135.89486849838</ele>
        <time>2015-07-11T12:18:41Z</time>
      </trkpt>
      <trkpt lat="45.29858" lon="4.80634">
        <ele>135.65</ele>
        <time>2015-07-11T12:18:52Z</time>
      </trkpt>
      <trkpt lat="45.29846" lon="4.80649">
        <ele>135.5217094181</ele>
        <time>2015-07-11T12:18:59Z</time>
      </trkpt>
      <trkpt lat="45.29839" lon="4.80656">
        <ele>135.46232470492</ele>
        <time>2015-07-11T12:19:02Z</time>
      </trkpt>
      <trkpt lat="45.2982" lon="4.80681">
        <ele>135.31356447756</ele>
        <time>2015-07-11T12:19:12Z</time>
      </trkpt>
      <trkpt lat="45.29803" lon="4.80697">
        <ele>135.24713438812</ele>
        <time>2015-07-11T12:19:21Z</time>
      </trkpt>
      <trkpt lat="45.29799" lon="4.80701">
        <ele>135.24</ele>
        <time>2015-07-11T12:19:22Z</time>
      </trkpt>
      <trkpt lat="45.29775" lon="4.80726">
        <ele>135.23837775128</ele>
        <time>2015-07-11T12:19:34Z</time>
      </trkpt>
      <trkpt lat="45.29747" lon="4.80755">
        <ele>135.22</ele>
        <time>2015-07-11T12:19:48Z</time>
      </trkpt>
      <trkpt lat="45.29725" lon="4.80778">
        <ele>135.10057464877</ele>
        <time>2015-07-11T12:19:59Z</time>
      </trkpt>
      <trkpt lat="45.29709" lon="4.80794">
        <ele>134.99956816377</ele>
        <time>2015-07-11T12:20:07Z</time>
      </trkpt>
      <trkpt lat="45.29687" lon="4.80814">
        <ele>134.91295963799</ele>
        <time>2015-07-11T12:20:18Z</time>
      </trkpt>
      <trkpt lat="45.29673" lon="4.80826">
        <ele>134.92712586313</ele>
        <time>2015-07-11T12:20:24Z</time>
      </trkpt>
      <trkpt lat="45.29668" lon="4.80829">
        <ele>134.94829105938</ele>
        <time>2015-07-11T12:20:26Z</time>
      </trkpt>
      <trkpt lat="45.29666" lon="4.80831">
        <ele>134.96137659881</ele>
        <time>2015-07-11T12:20:27Z</time>
      </trkpt>
      <trkpt lat="45.29666" lon="4.80831">
        <ele>134.96137659881</ele>
        <time>2015-07-11T12:20:27Z</time>
      </trkpt>
      <trkpt lat="45.29662" lon="4.80835">
        <ele>134.99</ele>
        <time>2015-07-11T12:20:29Z</time>
      </trkpt>
      <trkpt lat="45.29649" lon="4.80843">
        <ele>135.11789341038</ele>
        <time>2015-07-11T12:20:35Z</time>
      </trkpt>
      <trkpt lat="45.29635" lon="4.80855">
        <ele>135.3311373377</ele>
        <time>2015-07-11T12:20:41Z</time>
      </trkpt>
      <trkpt lat="45.29616" lon="4.80871">
        <ele>135.63407312745</ele>
        <time>2015-07-11T12:20:50Z</time>
      </trkpt>
      <trkpt lat="45.29599" lon="4.80882">
        <ele>135.84847631807</ele>
        <time>2015-07-11T12:20:58Z</time>
      </trkpt>
      <trkpt lat="45.29587" lon="4.80892">
        <ele>135.94</ele>
        <time>2015-07-11T12:21:03Z</time>
      </trkpt>
      <trkpt lat="45.29574" lon="4.80902">
        <ele>135.94601069199</ele>
        <time>2015-07-11T12:21:09Z</time>
      </trkpt>
      <trkpt lat="45.29574" lon="4.80902">
        <ele>135.94601069199</ele>
        <time>2015-07-11T12:21:09Z</time>
      </trkpt>
      <trkpt lat="45.29574" lon="4.80902">
        <ele>135.94601069199</ele>
        <time>2015-07-11T12:21:09Z</time>
      </trkpt>
      <trkpt lat="45.29565" lon="4.80908">
        <ele>135.89921961256</ele>
        <time>2015-07-11T12:21:13Z</time>
      </trkpt>
      <trkpt lat="45.29551" lon="4.80917">
        <ele>135.75693075731</ele>
        <time>2015-07-11T12:21:19Z</time>
      </trkpt>
      <trkpt lat="45.29524" lon="4.80935">
        <ele>135.27</ele>
        <time>2015-07-11T12:21:31Z</time>
      </trkpt>
      <trkpt lat="45.295" lon="4.80949">
        <ele>134.68663273301</ele>
        <time>2015-07-11T12:21:41Z</time>
      </trkpt>
      <trkpt lat="45.29468" lon="4.80967">
        <ele>133.91089994977</ele>
        <time>2015-07-11T12:21:55Z</time>
      </trkpt>
      <trkpt lat="45.29444" lon="4.80978">
        <ele>133.53193245265</ele>
        <time>2015-07-11T12:22:05Z</time>
      </trkpt>
      <trkpt lat="45.2944" lon="4.8098">
        <ele>133.49</ele>
        <time>2015-07-11T12:22:07Z</time>
      </trkpt>
      <trkpt lat="45.29408" lon="4.80994">
        <ele>133.506364667</ele>
        <time>2015-07-11T12:22:20Z</time>
      </trkpt>
      <trkpt lat="45.29367" lon="4.81012">
        <ele>134.03</ele>
        <time>2015-07-11T12:22:38Z</time>
      </trkpt>
      <trkpt lat="45.29355" lon="4.81017">
        <ele>134.21621642703</ele>
        <time>2015-07-11T12:22:43Z</time>
      </trkpt>
      <trkpt lat="45.29341" lon="4.81025">
        <ele>134.44595323947</ele>
        <time>2015-07-11T12:22:49Z</time>
      </trkpt>
      <trkpt lat="45.29327" lon="4.81036">
        <ele>134.66417020233</ele>
        <time>2015-07-11T12:22:55Z</time>
      </trkpt>
      <trkpt lat="45.29327" lon="4.81036">
        <ele>134.67056560284</ele>
        <time>2015-07-11T12:22:55Z</time>
      </trkpt>
      <trkpt lat="45.29327" lon="4.81036">
        <ele>134.67056560284</ele>
        <time>2015-07-11T12:22:55Z</time>
      </trkpt>
      <trkpt lat="45.29322" lon="4.81039">
        <ele>134.74063631794</ele>
        <time>2015-07-11T12:22:57Z</time>
      </trkpt>
      <trkpt lat="45.29322" lon="4.81039">
        <ele>134.74063631794</ele>
        <time>2015-07-11T12:22:57Z</time>
      </trkpt>
      <trkpt lat="45.29308" lon="4.81045">
        <ele>134.88533764267</ele>
        <time>2015-07-11T12:23:03Z</time>
      </trkpt>
      <trkpt lat="45.29295" lon="4.81051">
        <ele>134.97495603535</ele>
        <time>2015-07-11T12:23:09Z</time>
      </trkpt>
      <trkpt lat="45.29291" lon="4.81052">
        <ele>134.98830904049</ele>
        <time>2015-07-11T12:23:10Z</time>
      </trkpt>
      <trkpt lat="45.29287" lon="4.81053">
        <ele>134.99680338487</ele>
        <time>2015-07-11T12:23:12Z</time>
      </trkpt>
      <trkpt lat="45.29284" lon="4.81055">
        <ele>135</ele>
        <time>2015-07-11T12:23:13Z</time>
      </trkpt>
      <trkpt lat="45.29279" lon="4.81056">
        <ele>134.9969067065</ele>
        <time>2015-07-11T12:23:15Z</time>
      </trkpt>
      <trkpt lat="45.29252" lon="4.81064">
        <ele>134.84046329792</ele>
        <time>2015-07-11T12:23:26Z</time>
      </trkpt>
      <trkpt lat="45.29228" lon="4.81075">
        <ele>134.60202611072</ele>
        <time>2015-07-11T12:23:36Z</time>
      </trkpt>
      <trkpt lat="45.29224" lon="4.81077">
        <ele>134.56</ele>
        <time>2015-07-11T12:23:38Z</time>
      </trkpt>
      <trkpt lat="45.29205" lon="4.81085">
        <ele>134.38690190918</ele>
        <time>2015-07-11T12:23:46Z</time>
      </trkpt>
      <trkpt lat="45.29177" lon="4.8109">
        <ele>134.19587526269</ele>
        <time>2015-07-11T12:23:57Z</time>
      </trkpt>
      <trkpt lat="45.29141" lon="4.81095">
        <ele>134.01</ele>
        <time>2015-07-11T12:24:12Z</time>
      </trkpt>
      <trkpt lat="45.29104" lon="4.81099">
        <ele>133.88222549745</ele>
        <time>2015-07-11T12:24:27Z</time>
      </trkpt>
      <trkpt lat="45.29059" lon="4.81104">
        <ele>133.96</ele>
        <time>2015-07-11T12:24:45Z</time>
      </trkpt>
      <trkpt lat="45.29013" lon="4.8111">
        <ele>134.42496811138</ele>
        <time>2015-07-11T12:25:03Z</time>
      </trkpt>
      <trkpt lat="45.28974" lon="4.81113">
        <ele>134.93</ele>
        <time>2015-07-11T12:25:19Z</time>
      </trkpt>
      <trkpt lat="45.28929" lon="4.81116">
        <ele>135.45</ele>
        <time>2015-07-11T12:25:37Z</time>
      </trkpt>
      <trkpt lat="45.28879" lon="4.81119">
        <ele>135.82916602519</ele>
        <time>2015-07-11T12:25:57Z</time>
      </trkpt>
      <trkpt lat="45.28834" lon="4.81121">
        <ele>135.81</ele>
        <time>2015-07-11T12:26:15Z</time>
      </trkpt>
      <trkpt lat="45.28782" lon="4.81118">
        <ele>135.23054342903</ele>
        <time>2015-07-11T12:26:35Z</time>
      </trkpt>
      <trkpt lat="45.28741" lon="4.81117">
        <ele>134.53</ele>
        <time>2015-07-11T12:26:52Z</time>
      </trkpt>
      <trkpt lat="45.28704" lon="4.8112">
        <ele>133.97824486652</ele>
        <time>2015-07-11T12:27:07Z</time>
      </trkpt>
      <trkpt lat="45.2866" lon="4.81122">
        <ele>134.2</ele>
        <time>2015-07-11T12:27:24Z</time>
      </trkpt>
      <trkpt lat="45.28621" lon="4.81123">
        <ele>135.55677570535</ele>
        <time>2015-07-11T12:27:40Z</time>
      </trkpt>
      <trkpt lat="45.28605" lon="4.81122">
        <ele>136.20593029993</ele>
        <time>2015-07-11T12:27:47Z</time>
      </trkpt>
      <trkpt lat="45.28589" lon="4.81118">
        <ele>136.71</ele>
        <time>2015-07-11T12:27:53Z</time>
      </trkpt>
      <trkpt lat="45.28549" lon="4.81112">
        <ele>137.0025985987</ele>
        <time>2015-07-11T12:28:09Z</time>
      </trkpt>
      <trkpt lat="45.28513" lon="4.81111">
        <ele>136.6</ele>
        <time>2015-07-11T12:28:24Z</time>
      </trkpt>
      <trkpt lat="45.28473" lon="4.81107">
        <ele>136.07169435769</ele>
        <time>2015-07-11T12:28:39Z</time>
      </trkpt>
      <trkpt lat="45.28467" lon="4.81107">
        <ele>136.00230007807</ele>
        <time>2015-07-11T12:28:42Z</time>
      </trkpt>
      <trkpt lat="45.28461" lon="4.81106">
        <ele>135.93766265643</ele>
        <time>2015-07-11T12:28:45Z</time>
      </trkpt>
      <trkpt lat="45.28454" lon="4.81105">
        <ele>135.87885057118</ele>
        <time>2015-07-11T12:28:47Z</time>
      </trkpt>
      <trkpt lat="45.28448" lon="4.81105">
        <ele>135.82774472396</ele>
        <time>2015-07-11T12:28:50Z</time>
      </trkpt>
      <trkpt lat="45.28441" lon="4.81105">
        <ele>135.78472653238</ele>
        <time>2015-07-11T12:28:52Z</time>
      </trkpt>
      <trkpt lat="45.28428" lon="4.81104">
        <ele>135.73268367323</ele>
        <time>2015-07-11T12:28:58Z</time>
      </trkpt>
      <trkpt lat="45.28415" lon="4.81104">
        <ele>135.73</ele>
        <time>2015-07-11T12:29:03Z</time>
      </trkpt>
      <trkpt lat="45.28396" lon="4.8111">
        <ele>135.81956760189</ele>
        <time>2015-07-11T12:29:11Z</time>
      </trkpt>
      <trkpt lat="45.2839" lon="4.81111">
        <ele>135.86135640646</ele>
        <time>2015-07-11T12:29:13Z</time>
      </trkpt>
      <trkpt lat="45.28374" lon="4.81111">
        <ele>135.99</ele>
        <time>2015-07-11T12:29:19Z</time>
      </trkpt>
      <trkpt lat="45.28236" lon="4.81132">
        <ele>136.85</ele>
        <time>2015-07-11T12:30:15Z</time>
      </trkpt>
      <trkpt lat="45.28215" lon="4.81135">
        <ele>136.90189779193</ele>
        <time>2015-07-11T12:30:23Z</time>
      </trkpt>
      <trkpt lat="45.28178" lon="4.8114">
        <ele>137.10520513817</ele>
        <time>2015-07-11T12:30:38Z</time>
      </trkpt>
      <trkpt lat="45.28163" lon="4.81143">
        <ele>137.3</ele>
        <time>2015-07-11T12:30:44Z</time>
      </trkpt>
      <trkpt lat="45.28152" lon="4.81146">
        <ele>137.48722007851</ele>
        <time>2015-07-11T12:30:49Z</time>
      </trkpt>
      <trkpt lat="45.28112" lon="4.81155">
        <ele>138.16</ele>
        <time>2015-07-11T12:31:05Z</time>
      </trkpt>
      <trkpt lat="45.28069" lon="4.8116">
        <ele>138.08274462825</ele>
        <time>2015-07-11T12:31:22Z</time>
      </trkpt>
      <trkpt lat="45.28038" lon="4.81164">
        <ele>137.69029666843</ele>
        <time>2015-07-11T12:31:35Z</time>
      </trkpt>
      <trkpt lat="45.28021" lon="4.81168">
        <ele>137.45369098005</ele>
        <time>2015-07-11T12:31:42Z</time>
      </trkpt>
      <trkpt lat="45.28011" lon="4.81169">
        <ele>137.34739575045</ele>
        <time>2015-07-11T12:31:46Z</time>
      </trkpt>
      <trkpt lat="45.28006" lon="4.8117">
        <ele>137.3</ele>
        <time>2015-07-11T12:31:48Z</time>
      </trkpt>
      <trkpt lat="45.27982" lon="4.81176">
        <ele>137.17669048247</ele>
        <time>2015-07-11T12:31:57Z</time>
      </trkpt>
      <trkpt lat="45.27959" lon="4.81179">
        <ele>137.16616727409</ele>
        <time>2015-07-11T12:32:06Z</time>
      </trkpt>
      <trkpt lat="45.27951" lon="4.81181">
        <ele>137.17828637074</ele>
        <time>2015-07-11T12:32:10Z</time>
      </trkpt>
      <trkpt lat="45.27918" lon="4.81187">
        <ele>137.23</ele>
        <time>2015-07-11T12:32:23Z</time>
      </trkpt>
      <trkpt lat="45.27884" lon="4.81184">
        <ele>137.19366762424</ele>
        <time>2015-07-11T12:32:37Z</time>
      </trkpt>
      <trkpt lat="45.27844" lon="4.81181">
        <ele>137.01</ele>
        <time>2015-07-11T12:32:53Z</time>
      </trkpt>
      <trkpt lat="45.27831" lon="4.81182">
        <ele>136.91830730748</ele>
        <time>2015-07-11T12:32:58Z</time>
      </trkpt>
      <trkpt lat="45.27812" lon="4.81182">
        <ele>136.77129682245</ele>
        <time>2015-07-11T12:33:06Z</time>
      </trkpt>
      <trkpt lat="45.27766" lon="4.8118">
        <ele>136.57</ele>
        <time>2015-07-11T12:33:24Z</time>
      </trkpt>
      <trkpt lat="45.27715" lon="4.81182">
        <ele>136.63</ele>
        <time>2015-07-11T12:33:44Z</time>
      </trkpt>
      <trkpt lat="45.27659" lon="4.81179">
        <ele>136.03305368941</ele>
        <time>2015-07-11T12:34:07Z</time>
      </trkpt>
      <trkpt lat="45.27608" lon="4.81178">
        <ele>135.33</ele>
        <time>2015-07-11T12:34:27Z</time>
      </trkpt>
      <trkpt lat="45.27559" lon="4.81177">
        <ele>135.12506034069</ele>
        <time>2015-07-11T12:34:47Z</time>
      </trkpt>
      <trkpt lat="45.27522" lon="4.81176">
        <ele>135.33</ele>
        <time>2015-07-11T12:35:02Z</time>
      </trkpt>
      <trkpt lat="45.2747" lon="4.81173">
        <ele>135.93142293009</ele>
        <time>2015-07-11T12:35:22Z</time>
      </trkpt>
      <trkpt lat="45.27437" lon="4.81173">
        <ele>136.19</ele>
        <time>2015-07-11T12:35:36Z</time>
      </trkpt>
      <trkpt lat="45.27383" lon="4.81172">
        <ele>136.00144879198</ele>
        <time>2015-07-11T12:35:57Z</time>
      </trkpt>
      <trkpt lat="45.27377" lon="4.81172">
        <ele>135.96302697891</ele>
        <time>2015-07-11T12:36:00Z</time>
      </trkpt>
      <trkpt lat="45.27354" lon="4.81175">
        <ele>135.85</ele>
        <time>2015-07-11T12:36:09Z</time>
      </trkpt>
      <trkpt lat="45.27323" lon="4.81178">
        <ele>135.85171035091</ele>
        <time>2015-07-11T12:36:21Z</time>
      </trkpt>
      <trkpt lat="45.27289" lon="4.81181">
        <ele>135.99190315656</ele>
        <time>2015-07-11T12:36:35Z</time>
      </trkpt>
      <trkpt lat="45.27279" lon="4.81182">
        <ele>136.04244177076</ele>
        <time>2015-07-11T12:36:39Z</time>
      </trkpt>
      <trkpt lat="45.27274" lon="4.81183">
        <ele>136.0669182415</ele>
        <time>2015-07-11T12:36:41Z</time>
      </trkpt>
      <trkpt lat="45.27269" lon="4.81184">
        <ele>136.09</ele>
        <time>2015-07-11T12:36:43Z</time>
      </trkpt>
      <trkpt lat="45.27264" lon="4.81184">
        <ele>136.11212265076</ele>
        <time>2015-07-11T12:36:45Z</time>
      </trkpt>
      <trkpt lat="45.27259" lon="4.81184">
        <ele>136.13312415476</ele>
        <time>2015-07-11T12:36:47Z</time>
      </trkpt>
      <trkpt lat="45.27255" lon="4.81185">
        <ele>136.15229054036</ele>
        <time>2015-07-11T12:36:49Z</time>
      </trkpt>
      <trkpt lat="45.27222" lon="4.81188">
        <ele>136.22411182565</ele>
        <time>2015-07-11T12:37:02Z</time>
      </trkpt>
      <trkpt lat="45.27217" lon="4.81188">
        <ele>136.22311557031</ele>
        <time>2015-07-11T12:37:04Z</time>
      </trkpt>
      <trkpt lat="45.27213" lon="4.81189">
        <ele>136.21910307592</ele>
        <time>2015-07-11T12:37:06Z</time>
      </trkpt>
      <trkpt lat="45.27209" lon="4.81189">
        <ele>136.21252523058</ele>
        <time>2015-07-11T12:37:07Z</time>
      </trkpt>
      <trkpt lat="45.27196" lon="4.81189">
        <ele>136.17</ele>
        <time>2015-07-11T12:37:12Z</time>
      </trkpt>
      <trkpt lat="45.27181" lon="4.81189">
        <ele>136.0783773742</ele>
        <time>2015-07-11T12:37:18Z</time>
      </trkpt>
      <trkpt lat="45.27172" lon="4.8119">
        <ele>135.99846346393</ele>
        <time>2015-07-11T12:37:22Z</time>
      </trkpt>
      <trkpt lat="45.2717" lon="4.81191">
        <ele>135.98425213085</ele>
        <time>2015-07-11T12:37:23Z</time>
      </trkpt>
      <trkpt lat="45.2717" lon="4.81191">
        <ele>135.97853023443</ele>
        <time>2015-07-11T12:37:23Z</time>
      </trkpt>
      <trkpt lat="45.27168" lon="4.81191">
        <ele>135.96446524536</ele>
        <time>2015-07-11T12:37:23Z</time>
      </trkpt>
      <trkpt lat="45.27166" lon="4.81191">
        <ele>135.94147021555</ele>
        <time>2015-07-11T12:37:24Z</time>
      </trkpt>
      <trkpt lat="45.27166" lon="4.81191">
        <ele>135.94147021555</ele>
        <time>2015-07-11T12:37:24Z</time>
      </trkpt>
      <trkpt lat="45.27149" lon="4.81189">
        <ele>135.71545631317</ele>
        <time>2015-07-11T12:37:31Z</time>
      </trkpt>
      <trkpt lat="45.27118" lon="4.81189">
        <ele>135.17</ele>
        <time>2015-07-11T12:37:44Z</time>
      </trkpt>
      <trkpt lat="45.27098" lon="4.81191">
        <ele>134.68311796306</ele>
        <time>2015-07-11T12:37:52Z</time>
      </trkpt>
      <trkpt lat="45.27091" lon="4.81192">
        <ele>134.51119576936</ele>
        <time>2015-07-11T12:37:55Z</time>
      </trkpt>
      <trkpt lat="45.27084" lon="4.81193">
        <ele>134.33700895654</ele>
        <time>2015-07-11T12:37:57Z</time>
      </trkpt>
      <trkpt lat="45.27078" lon="4.81193">
        <ele>134.16208583336</ele>
        <time>2015-07-11T12:38:00Z</time>
      </trkpt>
      <trkpt lat="45.27071" lon="4.81195">
        <ele>133.98173703872</ele>
        <time>2015-07-11T12:38:03Z</time>
      </trkpt>
      <trkpt lat="45.27027" lon="4.81198">
        <ele>132.9</ele>
        <time>2015-07-11T12:38:20Z</time>
      </trkpt>
      <trkpt lat="45.26987" lon="4.81194">
        <ele>132.26149070739</ele>
        <time>2015-07-11T12:38:36Z</time>
      </trkpt>
      <trkpt lat="45.26976" lon="4.81195">
        <ele>132.14900793947</ele>
        <time>2015-07-11T12:38:41Z</time>
      </trkpt>
      <trkpt lat="45.26959" lon="4.81197">
        <ele>132.02730638671</ele>
        <time>2015-07-11T12:38:47Z</time>
      </trkpt>
      <trkpt lat="45.26953" lon="4.81197">
        <ele>132</ele>
        <time>2015-07-11T12:38:50Z</time>
      </trkpt>
      <trkpt lat="45.26942" lon="4.81197">
        <ele>131.96684120986</ele>
        <time>2015-07-11T12:38:54Z</time>
      </trkpt>
      <trkpt lat="45.26931" lon="4.81198">
        <ele>131.95589477218</ele>
        <time>2015-07-11T12:38:59Z</time>
      </trkpt>
      <trkpt lat="45.26919" lon="4.81198">
        <ele>131.96018836075</ele>
        <time>2015-07-11T12:39:03Z</time>
      </trkpt>
      <trkpt lat="45.26914" lon="4.81198">
        <ele>131.96613974437</ele>
        <time>2015-07-11T12:39:06Z</time>
      </trkpt>
      <trkpt lat="45.26908" lon="4.81198">
        <ele>131.97406079445</ele>
        <time>2015-07-11T12:39:08Z</time>
      </trkpt>
      <trkpt lat="45.26902" lon="4.81198">
        <ele>131.98267330729</ele>
        <time>2015-07-11T12:39:10Z</time>
      </trkpt>
      <trkpt lat="45.26896" lon="4.81199">
        <ele>131.9917651843</ele>
        <time>2015-07-11T12:39:13Z</time>
      </trkpt>
      <trkpt lat="45.2689" lon="4.812">
        <ele>132</ele>
        <time>2015-07-11T12:39:15Z</time>
      </trkpt>
      <trkpt lat="45.26848" lon="4.81207">
        <ele>132.01890267747</ele>
        <time>2015-07-11T12:39:32Z</time>
      </trkpt>
      <trkpt lat="45.26808" lon="4.81214">
        <ele>132</ele>
        <time>2015-07-11T12:39:48Z</time>
      </trkpt>
      <trkpt lat="45.26761" lon="4.81221">
        <ele>131.97859573848</ele>
        <time>2015-07-11T12:40:07Z</time>
      </trkpt>
      <trkpt lat="45.26718" lon="4.81232">
        <ele>131.98995665039</ele>
        <time>2015-07-11T12:40:25Z</time>
      </trkpt>
      <trkpt lat="45.26708" lon="4.81237">
        <ele>132</ele>
        <time>2015-07-11T12:40:29Z</time>
      </trkpt>
      <trkpt lat="45.26692" lon="4.81246">
        <ele>132.02382029684</ele>
        <time>2015-07-11T12:40:36Z</time>
      </trkpt>
      <trkpt lat="45.26663" lon="4.81259">
        <ele>132.07173079955</ele>
        <time>2015-07-11T12:40:48Z</time>
      </trkpt>
      <trkpt lat="45.26649" lon="4.81269">
        <ele>132.09490133436</ele>
        <time>2015-07-11T12:40:54Z</time>
      </trkpt>
      <trkpt lat="45.26645" lon="4.8127">
        <ele>132.09934967714</ele>
        <time>2015-07-11T12:40:56Z</time>
      </trkpt>
      <trkpt lat="45.2664" lon="4.81273">
        <ele>132.10509617285</ele>
        <time>2015-07-11T12:40:58Z</time>
      </trkpt>
      <trkpt lat="45.2664" lon="4.81273">
        <ele>132.10517621652</ele>
        <time>2015-07-11T12:40:58Z</time>
      </trkpt>
      <trkpt lat="45.26637" lon="4.81274">
        <ele>132.10799399589</ele>
        <time>2015-07-11T12:40:59Z</time>
      </trkpt>
      <trkpt lat="45.26637" lon="4.81274">
        <ele>132.10799399589</ele>
        <time>2015-07-11T12:40:59Z</time>
      </trkpt>
      <trkpt lat="45.26635" lon="4.81274">
        <ele>132.11</ele>
        <time>2015-07-11T12:41:00Z</time>
      </trkpt>
      <trkpt lat="45.26616" lon="4.81272">
        <ele>132.1194777506</ele>
        <time>2015-07-11T12:41:08Z</time>
      </trkpt>
      <trkpt lat="45.26587" lon="4.81265">
        <ele>132.14842542535</ele>
        <time>2015-07-11T12:41:19Z</time>
      </trkpt>
      <trkpt lat="45.26583" lon="4.81263">
        <ele>132.15825455296</ele>
        <time>2015-07-11T12:41:21Z</time>
      </trkpt>
      <trkpt lat="45.26557" lon="4.81247">
        <ele>132.28</ele>
        <time>2015-07-11T12:41:33Z</time>
      </trkpt>
      <trkpt lat="45.26531" lon="4.81238">
        <ele>132.49345059632</ele>
        <time>2015-07-11T12:41:43Z</time>
      </trkpt>
      <trkpt lat="45.26496" lon="4.81232">
        <ele>132.78</ele>
        <time>2015-07-11T12:41:57Z</time>
      </trkpt>
      <trkpt lat="45.26467" lon="4.81227">
        <ele>132.85983954113</ele>
        <time>2015-07-11T12:42:09Z</time>
      </trkpt>
      <trkpt lat="45.26462" lon="4.81226">
        <ele>132.85634761319</ele>
        <time>2015-07-11T12:42:11Z</time>
      </trkpt>
      <trkpt lat="45.2644" lon="4.81223">
        <ele>132.78611789262</ele>
        <time>2015-07-11T12:42:20Z</time>
      </trkpt>
      <trkpt lat="45.26425" lon="4.81222">
        <ele>132.69401792314</ele>
        <time>2015-07-11T12:42:26Z</time>
      </trkpt>
      <trkpt lat="45.26391" lon="4.81222">
        <ele>132.35</ele>
        <time>2015-07-11T12:42:40Z</time>
      </trkpt>
      <trkpt lat="45.26357" lon="4.81227">
        <ele>131.92592409737</ele>
        <time>2015-07-11T12:42:53Z</time>
      </trkpt>
      <trkpt lat="45.26341" lon="4.81228">
        <ele>131.78034723127</ele>
        <time>2015-07-11T12:42:59Z</time>
      </trkpt>
      <trkpt lat="45.2633" lon="4.81226">
        <ele>131.73</ele>
        <time>2015-07-11T12:43:04Z</time>
      </trkpt>
      <trkpt lat="45.26293" lon="4.81219">
        <ele>131.92230779183</ele>
        <time>2015-07-11T12:43:19Z</time>
      </trkpt>
      <trkpt lat="45.26262" lon="4.81214">
        <ele>132.31</ele>
        <time>2015-07-11T12:43:31Z</time>
      </trkpt>
      <trkpt lat="45.26221" lon="4.8121">
        <ele>132.78389674364</ele>
        <time>2015-07-11T12:43:48Z</time>
      </trkpt>
      <trkpt lat="45.26211" lon="4.81206">
        <ele>132.85742885378</ele>
        <time>2015-07-11T12:43:52Z</time>
      </trkpt>
      <trkpt lat="45.26196" lon="4.81199">
        <ele>132.90271156574</ele>
        <time>2015-07-11T12:43:58Z</time>
      </trkpt>
      <trkpt lat="45.26162" lon="4.81192">
        <ele>132.66</ele>
        <time>2015-07-11T12:44:12Z</time>
      </trkpt>
      <trkpt lat="45.26134" lon="4.81182">
        <ele>132.11695084103</ele>
        <time>2015-07-11T12:44:24Z</time>
      </trkpt>
      <trkpt lat="45.26091" lon="4.81171">
        <ele>132.09</ele>
        <time>2015-07-11T12:44:41Z</time>
      </trkpt>
      <trkpt lat="45.2606" lon="4.81164">
        <ele>133.50532022561</ele>
        <time>2015-07-11T12:44:54Z</time>
      </trkpt>
      <trkpt lat="45.26034" lon="4.81156">
        <ele>134.74284407261</ele>
        <time>2015-07-11T12:45:04Z</time>
      </trkpt>
      <trkpt lat="45.26029" lon="4.81153">
        <ele>134.9</ele>
        <time>2015-07-11T12:45:07Z</time>
      </trkpt>
      <trkpt lat="45.25988" lon="4.81129">
        <ele>134.73885949214</ele>
        <time>2015-07-11T12:45:24Z</time>
      </trkpt>
      <trkpt lat="45.25953" lon="4.81109">
        <ele>133.71</ele>
        <time>2015-07-11T12:45:39Z</time>
      </trkpt>
      <trkpt lat="45.25917" lon="4.81091">
        <ele>133.06921038037</ele>
        <time>2015-07-11T12:45:54Z</time>
      </trkpt>
      <trkpt lat="45.25908" lon="4.81085">
        <ele>132.97884511567</ele>
        <time>2015-07-11T12:45:59Z</time>
      </trkpt>
      <trkpt lat="45.25908" lon="4.81085">
        <ele>132.97884511567</ele>
        <time>2015-07-11T12:45:59Z</time>
      </trkpt>
      <trkpt lat="45.25908" lon="4.81085">
        <ele>132.97884511567</ele>
        <time>2015-07-11T12:45:59Z</time>
      </trkpt>
      <trkpt lat="45.25908" lon="4.81085">
        <ele>132.9783274956</ele>
        <time>2015-07-11T12:45:59Z</time>
      </trkpt>
      <trkpt lat="45.25901" lon="4.81082">
        <ele>132.9277215799</ele>
        <time>2015-07-11T12:46:02Z</time>
      </trkpt>
      <trkpt lat="45.25898" lon="4.8108">
        <ele>132.90952693853</ele>
        <time>2015-07-11T12:46:03Z</time>
      </trkpt>
      <trkpt lat="45.25877" lon="4.81073">
        <ele>132.82827506977</ele>
        <time>2015-07-11T12:46:11Z</time>
      </trkpt>
      <trkpt lat="45.25848" lon="4.81066">
        <ele>132.75096964054</ele>
        <time>2015-07-11T12:46:23Z</time>
      </trkpt>
      <trkpt lat="45.25843" lon="4.81063">
        <ele>132.73</ele>
        <time>2015-07-11T12:46:25Z</time>
      </trkpt>
      <trkpt lat="45.25805" lon="4.81046">
        <ele>132.48504457984</ele>
        <time>2015-07-11T12:46:41Z</time>
      </trkpt>
      <trkpt lat="45.25766" lon="4.81033">
        <ele>132.08</ele>
        <time>2015-07-11T12:46:57Z</time>
      </trkpt>
      <trkpt lat="45.25733" lon="4.81014">
        <ele>131.64655146543</ele>
        <time>2015-07-11T12:47:11Z</time>
      </trkpt>
      <trkpt lat="45.25692" lon="4.80988">
        <ele>131.26</ele>
        <time>2015-07-11T12:47:30Z</time>
      </trkpt>
      <trkpt lat="45.25657" lon="4.80971">
        <ele>131.26312625525</ele>
        <time>2015-07-11T12:47:44Z</time>
      </trkpt>
      <trkpt lat="45.25637" lon="4.80965">
        <ele>131.32570675464</ele>
        <time>2015-07-11T12:47:53Z</time>
      </trkpt>
      <trkpt lat="45.25621" lon="4.80958">
        <ele>131.36419594278</ele>
        <time>2015-07-11T12:47:59Z</time>
      </trkpt>
      <trkpt lat="45.2561" lon="4.80955">
        <ele>131.37</ele>
        <time>2015-07-11T12:48:04Z</time>
      </trkpt>
      <trkpt lat="45.25588" lon="4.80946">
        <ele>131.31614874758</ele>
        <time>2015-07-11T12:48:13Z</time>
      </trkpt>
      <trkpt lat="45.25551" lon="4.80934">
        <ele>131.09</ele>
        <time>2015-07-11T12:48:28Z</time>
      </trkpt>
      <trkpt lat="45.25526" lon="4.80924">
        <ele>130.921555545</ele>
        <time>2015-07-11T12:48:38Z</time>
      </trkpt>
      <trkpt lat="45.25504" lon="4.80913">
        <ele>130.815404536</ele>
        <time>2015-07-11T12:48:48Z</time>
      </trkpt>
      <trkpt lat="45.25478" lon="4.80908">
        <ele>130.81</ele>
        <time>2015-07-11T12:48:58Z</time>
      </trkpt>
      <trkpt lat="45.25444" lon="4.80905">
        <ele>131.08349431141</ele>
        <time>2015-07-11T12:49:12Z</time>
      </trkpt>
      <trkpt lat="45.25421" lon="4.80903">
        <ele>131.51498110106</ele>
        <time>2015-07-11T12:49:21Z</time>
      </trkpt>
      <trkpt lat="45.2541" lon="4.80903">
        <ele>131.78029504019</ele>
        <time>2015-07-11T12:49:25Z</time>
      </trkpt>
      <trkpt lat="45.25399" lon="4.809">
        <ele>132.1301734714</ele>
        <time>2015-07-11T12:49:30Z</time>
      </trkpt>
      <trkpt lat="45.25381" lon="4.80896">
        <ele>132.82</ele>
        <time>2015-07-11T12:49:37Z</time>
      </trkpt>
      <trkpt lat="45.2537" lon="4.80898">
        <ele>133.30236331956</ele>
        <time>2015-07-11T12:49:42Z</time>
      </trkpt>
      <trkpt lat="45.2536" lon="4.80913">
        <ele>134.01499196505</ele>
        <time>2015-07-11T12:49:47Z</time>
      </trkpt>
      <trkpt lat="45.25352" lon="4.80929">
        <ele>134.74053795624</ele>
        <time>2015-07-11T12:49:53Z</time>
      </trkpt>
      <trkpt lat="45.25342" lon="4.80939">
        <ele>135.34828748281</ele>
        <time>2015-07-11T12:49:58Z</time>
      </trkpt>
      <trkpt lat="45.25338" lon="4.80941">
        <ele>135.53892054489</ele>
        <time>2015-07-11T12:50:00Z</time>
      </trkpt>
      <trkpt lat="45.25317" lon="4.80952">
        <ele>136.46</ele>
        <time>2015-07-11T12:50:09Z</time>
      </trkpt>
      <trkpt lat="45.25298" lon="4.80957">
        <ele>136.97830598345</ele>
        <time>2015-07-11T12:50:17Z</time>
      </trkpt>
      <trkpt lat="45.25272" lon="4.80965">
        <ele>137.36067031262</ele>
        <time>2015-07-11T12:50:27Z</time>
      </trkpt>
      <trkpt lat="45.25266" lon="4.80966">
        <ele>137.42361252591</ele>
        <time>2015-07-11T12:50:30Z</time>
      </trkpt>
      <trkpt lat="45.25262" lon="4.80967">
        <ele>137.45306031489</ele>
        <time>2015-07-11T12:50:31Z</time>
      </trkpt>
      <trkpt lat="45.25259" lon="4.80967">
        <ele>137.48161405618</ele>
        <time>2015-07-11T12:50:32Z</time>
      </trkpt>
      <trkpt lat="45.25256" lon="4.80967">
        <ele>137.51189243806</ele>
        <time>2015-07-11T12:50:34Z</time>
      </trkpt>
      <trkpt lat="45.25253" lon="4.80967">
        <ele>137.54435208151</ele>
        <time>2015-07-11T12:50:35Z</time>
      </trkpt>
      <trkpt lat="45.25253" lon="4.80967">
        <ele>137.54435208151</ele>
        <time>2015-07-11T12:50:35Z</time>
      </trkpt>
      <trkpt lat="45.25229" lon="4.80967">
        <ele>137.81354168665</ele>
        <time>2015-07-11T12:50:44Z</time>
      </trkpt>
      <trkpt lat="45.25226" lon="4.80967">
        <ele>137.86</ele>
        <time>2015-07-11T12:50:46Z</time>
      </trkpt>
      <trkpt lat="45.25223" lon="4.80967">
        <ele>137.90682849548</ele>
        <time>2015-07-11T12:50:47Z</time>
      </trkpt>
      <trkpt lat="45.2522" lon="4.80969">
        <ele>137.95134451542</ele>
        <time>2015-07-11T12:50:48Z</time>
      </trkpt>
      <trkpt lat="45.25218" lon="4.80971">
        <ele>137.9919038614</ele>
        <time>2015-07-11T12:50:49Z</time>
      </trkpt>
      <trkpt lat="45.25217" lon="4.80973">
        <ele>138.0385612496</ele>
        <time>2015-07-11T12:50:50Z</time>
      </trkpt>
      <trkpt lat="45.25213" lon="4.80992">
        <ele>138.31436976963</ele>
        <time>2015-07-11T12:50:55Z</time>
      </trkpt>
      <trkpt lat="45.25212" lon="4.8101">
        <ele>138.55176996636</ele>
        <time>2015-07-11T12:51:00Z</time>
      </trkpt>
      <trkpt lat="45.25212" lon="4.8101">
        <ele>138.55764705005</ele>
        <time>2015-07-11T12:51:00Z</time>
      </trkpt>
      <trkpt lat="45.25212" lon="4.8101">
        <ele>138.560380528</ele>
        <time>2015-07-11T12:51:01Z</time>
      </trkpt>
      <trkpt lat="45.25212" lon="4.8101">
        <ele>138.56850895437</ele>
        <time>2015-07-11T12:51:01Z</time>
      </trkpt>
      <trkpt lat="45.25212" lon="4.8101">
        <ele>138.56850895437</ele>
        <time>2015-07-11T12:51:01Z</time>
      </trkpt>
      <trkpt lat="45.25212" lon="4.8101">
        <ele>138.56850895437</ele>
        <time>2015-07-11T12:51:01Z</time>
      </trkpt>
      <trkpt lat="45.25212" lon="4.8101">
        <ele>138.57574871075</ele>
        <time>2015-07-11T12:51:01Z</time>
      </trkpt>
      <trkpt lat="45.25212" lon="4.8101">
        <ele>138.57574871075</ele>
        <time>2015-07-11T12:51:01Z</time>
      </trkpt>
      <trkpt lat="45.25212" lon="4.81011">
        <ele>138.59247535983</ele>
        <time>2015-07-11T12:51:01Z</time>
      </trkpt>
      <trkpt lat="45.25212" lon="4.81031">
        <ele>138.79399275415</ele>
        <time>2015-07-11T12:51:07Z</time>
      </trkpt>
      <trkpt lat="45.25208" lon="4.81051">
        <ele>138.88599061912</ele>
        <time>2015-07-11T12:51:13Z</time>
      </trkpt>
      <trkpt lat="45.25205" lon="4.81055">
        <ele>138.88</ele>
        <time>2015-07-11T12:51:14Z</time>
      </trkpt>
      <trkpt lat="45.2519" lon="4.81071">
        <ele>138.66667808178</ele>
        <time>2015-07-11T12:51:22Z</time>
      </trkpt>
      <trkpt lat="45.25186" lon="4.81073">
        <ele>138.59836629953</ele>
        <time>2015-07-11T12:51:23Z</time>
      </trkpt>
      <trkpt lat="45.25164" lon="4.81091">
        <ele>137.93533028975</ele>
        <time>2015-07-11T12:51:34Z</time>
      </trkpt>
      <trkpt lat="45.25154" lon="4.81102">
        <ele>137.5776230286</ele>
        <time>2015-07-11T12:51:39Z</time>
      </trkpt>
      <trkpt lat="45.2515" lon="4.81104">
        <ele>137.42657528001</ele>
        <time>2015-07-11T12:51:41Z</time>
      </trkpt>
      <trkpt lat="45.25149" lon="4.81104">
        <ele>137.41215240317</ele>
        <time>2015-07-11T12:51:41Z</time>
      </trkpt>
      <trkpt lat="45.2515" lon="4.81104">
        <ele>137.39046986775</ele>
        <time>2015-07-11T12:51:41Z</time>
      </trkpt>
      <trkpt lat="45.2515" lon="4.81104">
        <ele>137.39046986775</ele>
        <time>2015-07-11T12:51:41Z</time>
      </trkpt>
      <trkpt lat="45.2515" lon="4.81104">
        <ele>137.39046986775</ele>
        <time>2015-07-11T12:51:41Z</time>
      </trkpt>
      <trkpt lat="45.2515" lon="4.81104">
        <ele>137.38297348753</ele>
        <time>2015-07-11T12:51:41Z</time>
      </trkpt>
      <trkpt lat="45.2515" lon="4.81104">
        <ele>137.38297348753</ele>
        <time>2015-07-11T12:51:41Z</time>
      </trkpt>
      <trkpt lat="45.25143" lon="4.81101">
        <ele>137.19</ele>
        <time>2015-07-11T12:51:44Z</time>
      </trkpt>
      <trkpt lat="45.25124" lon="4.81083">
        <ele>136.65192075635</ele>
        <time>2015-07-11T12:51:53Z</time>
      </trkpt>
      <trkpt lat="45.25097" lon="4.81059">
        <ele>136.19832142153</ele>
        <time>2015-07-11T12:52:06Z</time>
      </trkpt>
      <trkpt lat="45.25065" lon="4.81035">
        <ele>136.13</ele>
        <time>2015-07-11T12:52:20Z</time>
      </trkpt>
      <trkpt lat="45.25034" lon="4.81012">
        <ele>136.48452613062</ele>
        <time>2015-07-11T12:52:35Z</time>
      </trkpt>
      <trkpt lat="45.24996" lon="4.80982">
        <ele>136.96</ele>
        <time>2015-07-11T12:52:52Z</time>
      </trkpt>
      <trkpt lat="45.24984" lon="4.80972">
        <ele>137.00618769454</ele>
        <time>2015-07-11T12:52:58Z</time>
      </trkpt>
      <trkpt lat="45.2497" lon="4.80959">
        <ele>136.9889636557</ele>
        <time>2015-07-11T12:53:04Z</time>
      </trkpt>
      <trkpt lat="45.2496" lon="4.80949">
        <ele>136.93961195024</ele>
        <time>2015-07-11T12:53:09Z</time>
      </trkpt>
      <trkpt lat="45.24943" lon="4.80938">
        <ele>136.83</ele>
        <time>2015-07-11T12:53:17Z</time>
      </trkpt>
      <trkpt lat="45.24909" lon="4.80916">
        <ele>136.58721094062</ele>
        <time>2015-07-11T12:53:32Z</time>
      </trkpt>
      <trkpt lat="45.24878" lon="4.80896">
        <ele>136.4</ele>
        <time>2015-07-11T12:53:45Z</time>
      </trkpt>
      <trkpt lat="45.24824" lon="4.80858">
        <ele>136.1950069615</ele>
        <time>2015-07-11T12:54:09Z</time>
      </trkpt>
      <trkpt lat="45.24782" lon="4.80827">
        <ele>135.98</ele>
        <time>2015-07-11T12:54:28Z</time>
      </trkpt>
      <trkpt lat="45.24733" lon="4.8079">
        <ele>135.68</ele>
        <time>2015-07-11T12:54:50Z</time>
      </trkpt>
      <trkpt lat="45.24685" lon="4.80754">
        <ele>135.97150453039</ele>
        <time>2015-07-11T12:55:12Z</time>
      </trkpt>
      <trkpt lat="45.2468" lon="4.80749">
        <ele>136.03659645888</ele>
        <time>2015-07-11T12:55:15Z</time>
      </trkpt>
      <trkpt lat="45.24635" lon="4.80716">
        <ele>136.63</ele>
        <time>2015-07-11T12:55:35Z</time>
      </trkpt>
      <trkpt lat="45.24607" lon="4.80697">
        <ele>136.93831433245</ele>
        <time>2015-07-11T12:55:47Z</time>
      </trkpt>
      <trkpt lat="45.24602" lon="4.80693">
        <ele>136.98985993267</ele>
        <time>2015-07-11T12:55:50Z</time>
      </trkpt>
      <trkpt lat="45.24596" lon="4.80689">
        <ele>137.038878296</ele>
        <time>2015-07-11T12:55:52Z</time>
      </trkpt>
      <trkpt lat="45.24591" lon="4.80685">
        <ele>137.08558260204</ele>
        <time>2015-07-11T12:55:55Z</time>
      </trkpt>
      <trkpt lat="45.24585" lon="4.80681">
        <ele>137.12903119934</ele>
        <time>2015-07-11T12:55:57Z</time>
      </trkpt>
      <trkpt lat="45.24558" lon="4.80663">
        <ele>137.29</ele>
        <time>2015-07-11T12:56:09Z</time>
      </trkpt>
      <trkpt lat="45.24524" lon="4.80651">
        <ele>137.4403507168</ele>
        <time>2015-07-11T12:56:23Z</time>
      </trkpt>
      <trkpt lat="45.24491" lon="4.80641">
        <ele>137.94</ele>
        <time>2015-07-11T12:56:37Z</time>
      </trkpt>
      <trkpt lat="45.24456" lon="4.80631">
        <ele>138.85</ele>
        <time>2015-07-11T12:56:51Z</time>
      </trkpt>
      <trkpt lat="45.24461" lon="4.80516">
        <ele>137.34911984601</ele>
        <time>2015-07-11T12:57:23Z</time>
      </trkpt>
      <trkpt lat="45.24466" lon="4.80455">
        <ele>135.53781093529</ele>
        <time>2015-07-11T12:57:41Z</time>
      </trkpt>
      <trkpt lat="45.24468" lon="4.80436">
        <ele>135.02</ele>
        <time>2015-07-11T12:57:46Z</time>
      </trkpt>
      <trkpt lat="45.24469" lon="4.80426">
        <ele>134.78854310559</ele>
        <time>2015-07-11T12:57:49Z</time>
      </trkpt>
      <trkpt lat="45.2447" lon="4.80417">
        <ele>134.57346675118</ele>
        <time>2015-07-11T12:57:52Z</time>
      </trkpt>
      <trkpt lat="45.24471" lon="4.80407">
        <ele>134.37476226164</ele>
        <time>2015-07-11T12:57:54Z</time>
      </trkpt>
      <trkpt lat="45.24471" lon="4.80397">
        <ele>134.17884939183</ele>
        <time>2015-07-11T12:57:57Z</time>
      </trkpt>
      <trkpt lat="45.24473" lon="4.80355">
        <ele>133.40928245771</ele>
        <time>2015-07-11T12:58:09Z</time>
      </trkpt>
      <trkpt lat="45.24474" lon="4.80345">
        <ele>133.20818958532</ele>
        <time>2015-07-11T12:58:12Z</time>
      </trkpt>
      <trkpt lat="45.24475" lon="4.80334">
        <ele>132.99443401176</ele>
        <time>2015-07-11T12:58:15Z</time>
      </trkpt>
      <trkpt lat="45.24476" lon="4.80324">
        <ele>132.78</ele>
        <time>2015-07-11T12:58:18Z</time>
      </trkpt>
      <trkpt lat="45.24475" lon="4.80317">
        <ele>132.61</ele>
        <time>2015-07-11T12:58:20Z</time>
      </trkpt>
      <trkpt lat="45.24381" lon="4.80303">
        <ele>132.11776567289</ele>
        <time>2015-07-11T12:58:58Z</time>
      </trkpt>
      <trkpt lat="45.24375" lon="4.80304">
        <ele>132.15882937241</ele>
        <time>2015-07-11T12:59:00Z</time>
      </trkpt>
      <trkpt lat="45.24371" lon="4.80305">
        <ele>132.1909693096</ele>
        <time>2015-07-11T12:59:02Z</time>
      </trkpt>
      <trkpt lat="45.24361" lon="4.80306">
        <ele>132.25110957929</ele>
        <time>2015-07-11T12:59:06Z</time>
      </trkpt>
      <trkpt lat="45.24334" lon="4.8031">
        <ele>132.31555058122</ele>
        <time>2015-07-11T12:59:17Z</time>
      </trkpt>
      <trkpt lat="45.24318" lon="4.80306">
        <ele>132.22</ele>
        <time>2015-07-11T12:59:24Z</time>
      </trkpt>
      <trkpt lat="45.24309" lon="4.80304">
        <ele>132.11172159211</ele>
        <time>2015-07-11T12:59:27Z</time>
      </trkpt>
      <trkpt lat="45.24288" lon="4.80287">
        <ele>131.72585421633</ele>
        <time>2015-07-11T12:59:36Z</time>
      </trkpt>
      <trkpt lat="45.24271" lon="4.8028">
        <ele>131.43028656902</ele>
        <time>2015-07-11T12:59:44Z</time>
      </trkpt>
      <trkpt lat="45.2425" lon="4.8027">
        <ele>131.24</ele>
        <time>2015-07-11T12:59:53Z</time>
      </trkpt>
      <trkpt lat="45.24229" lon="4.80264">
        <ele>131.35768176286</ele>
        <time>2015-07-11T13:00:01Z</time>
      </trkpt>
      <trkpt lat="45.24226" lon="4.80263">
        <ele>131.39291440101</ele>
        <time>2015-07-11T13:00:02Z</time>
      </trkpt>
      <trkpt lat="45.24223" lon="4.80262">
        <ele>131.43419275131</ele>
        <time>2015-07-11T13:00:04Z</time>
      </trkpt>
      <trkpt lat="45.24221" lon="4.80261">
        <ele>131.47471521467</ele>
        <time>2015-07-11T13:00:05Z</time>
      </trkpt>
      <trkpt lat="45.2422" lon="4.80261">
        <ele>131.49059388577</ele>
        <time>2015-07-11T13:00:05Z</time>
      </trkpt>
      <trkpt lat="45.24219" lon="4.80261">
        <ele>131.4936706674</ele>
        <time>2015-07-11T13:00:05Z</time>
      </trkpt>
      <trkpt lat="45.24219" lon="4.80261">
        <ele>131.4936706674</ele>
        <time>2015-07-11T13:00:05Z</time>
      </trkpt>
      <trkpt lat="45.24219" lon="4.80261">
        <ele>131.4936706674</ele>
        <time>2015-07-11T13:00:05Z</time>
      </trkpt>
      <trkpt lat="45.24217" lon="4.80262">
        <ele>131.52727353994</ele>
        <time>2015-07-11T13:00:06Z</time>
      </trkpt>
      <trkpt lat="45.24206" lon="4.80265">
        <ele>131.74639111547</ele>
        <time>2015-07-11T13:00:11Z</time>
      </trkpt>
      <trkpt lat="45.24184" lon="4.80269">
        <ele>132.2</ele>
        <time>2015-07-11T13:00:20Z</time>
      </trkpt>
      <trkpt lat="45.24152" lon="4.80281">
        <ele>132.80682939556</ele>
        <time>2015-07-11T13:00:33Z</time>
      </trkpt>
      <trkpt lat="45.24131" lon="4.80286">
        <ele>133.05572287839</ele>
        <time>2015-07-11T13:00:41Z</time>
      </trkpt>
      <trkpt lat="45.24118" lon="4.8029">
        <ele>133.12449410971</ele>
        <time>2015-07-11T13:00:47Z</time>
      </trkpt>
      <trkpt lat="45.24099" lon="4.80295">
        <ele>133.08</ele>
        <time>2015-07-11T13:00:54Z</time>
      </trkpt>
      <trkpt lat="45.24059" lon="4.80302">
        <ele>132.44127349599</ele>
        <time>2015-07-11T13:01:11Z</time>
      </trkpt>
      <trkpt lat="45.24017" lon="4.80305">
        <ele>131.73</ele>
        <time>2015-07-11T13:01:27Z</time>
      </trkpt>
      <trkpt lat="45.2399" lon="4.80308">
        <ele>131.60377201123</ele>
        <time>2015-07-11T13:01:38Z</time>
      </trkpt>
      <trkpt lat="45.23963" lon="4.80311">
        <ele>131.66400144056</ele>
        <time>2015-07-11T13:01:49Z</time>
      </trkpt>
      <trkpt lat="45.23936" lon="4.80316">
        <ele>131.74</ele>
        <time>2015-07-11T13:02:00Z</time>
      </trkpt>
      <trkpt lat="45.23909" lon="4.80325">
        <ele>131.68737475521</ele>
        <time>2015-07-11T13:02:11Z</time>
      </trkpt>
      <trkpt lat="45.23889" lon="4.8033">
        <ele>131.58321445346</ele>
        <time>2015-07-11T13:02:19Z</time>
      </trkpt>
      <trkpt lat="45.23878" lon="4.80332">
        <ele>131.52</ele>
        <time>2015-07-11T13:02:23Z</time>
      </trkpt>
      <trkpt lat="45.23831" lon="4.80342">
        <ele>131.18348732588</ele>
        <time>2015-07-11T13:02:43Z</time>
      </trkpt>
      <trkpt lat="45.23792" lon="4.80352">
        <ele>130.84</ele>
        <time>2015-07-11T13:02:58Z</time>
      </trkpt>
      <trkpt lat="45.23756" lon="4.80361">
        <ele>130.47665504602</ele>
        <time>2015-07-11T13:03:13Z</time>
      </trkpt>
      <trkpt lat="45.23739" lon="4.80365">
        <ele>130.35005739766</ele>
        <time>2015-07-11T13:03:20Z</time>
      </trkpt>
      <trkpt lat="45.23735" lon="4.80368">
        <ele>130.32335890615</ele>
        <time>2015-07-11T13:03:22Z</time>
      </trkpt>
      <trkpt lat="45.23735" lon="4.80368">
        <ele>130.32335890615</ele>
        <time>2015-07-11T13:03:22Z</time>
      </trkpt>
      <trkpt lat="45.23735" lon="4.80368">
        <ele>130.32335890615</ele>
        <time>2015-07-11T13:03:22Z</time>
      </trkpt>
      <trkpt lat="45.23731" lon="4.80365">
        <ele>130.30757481116</ele>
        <time>2015-07-11T13:03:24Z</time>
      </trkpt>
      <trkpt lat="45.23731" lon="4.80365">
        <ele>130.30757481116</ele>
        <time>2015-07-11T13:03:24Z</time>
      </trkpt>
      <trkpt lat="45.23719" lon="4.80369">
        <ele>130.28948419166</ele>
        <time>2015-07-11T13:03:28Z</time>
      </trkpt>
      <trkpt lat="45.23703" lon="4.80372">
        <ele>130.34872724303</ele>
        <time>2015-07-11T13:03:35Z</time>
      </trkpt>
      <trkpt lat="45.23702" lon="4.80375">
        <ele>130.36921701004</ele>
        <time>2015-07-11T13:03:36Z</time>
      </trkpt>
      <trkpt lat="45.237" lon="4.80378">
        <ele>130.38906490969</ele>
        <time>2015-07-11T13:03:37Z</time>
      </trkpt>
      <trkpt lat="45.23697" lon="4.80389">
        <ele>130.48</ele>
        <time>2015-07-11T13:03:40Z</time>
      </trkpt>
      <trkpt lat="45.23707" lon="4.80403">
        <ele>130.7038311023</ele>
        <time>2015-07-11T13:03:46Z</time>
      </trkpt>
      <trkpt lat="45.23723" lon="4.80427">
        <ele>131.15036815987</ele>
        <time>2015-07-11T13:03:56Z</time>
      </trkpt>
      <trkpt lat="45.23742" lon="4.80447">
        <ele>131.46571262554</ele>
        <time>2015-07-11T13:04:05Z</time>
      </trkpt>
      <trkpt lat="45.23745" lon="4.80451">
        <ele>131.49</ele>
        <time>2015-07-11T13:04:07Z</time>
      </trkpt>
      <trkpt lat="45.23771" lon="4.80476">
        <ele>131.31020841274</ele>
        <time>2015-07-11T13:04:19Z</time>
      </trkpt>
      <trkpt lat="45.23796" lon="4.80504">
        <ele>130.84548343161</ele>
        <time>2015-07-11T13:04:32Z</time>
      </trkpt>
      <trkpt lat="45.23817" lon="4.80529">
        <ele>130.60141945935</ele>
        <time>2015-07-11T13:04:43Z</time>
      </trkpt>
      <trkpt lat="45.23825" lon="4.80536">
        <ele>130.61</ele>
        <time>2015-07-11T13:04:47Z</time>
      </trkpt>
      <trkpt lat="45.23851" lon="4.80563">
        <ele>131.0410235436</ele>
        <time>2015-07-11T13:05:00Z</time>
      </trkpt>
      <trkpt lat="45.23876" lon="4.80587">
        <ele>131.52</ele>
        <time>2015-07-11T13:05:11Z</time>
      </trkpt>
      <trkpt lat="45.23895" lon="4.80608">
        <ele>131.62446330408</ele>
        <time>2015-07-11T13:05:21Z</time>
      </trkpt>
      <trkpt lat="45.23911" lon="4.80626">
        <ele>131.51471831763</ele>
        <time>2015-07-11T13:05:29Z</time>
      </trkpt>
      <trkpt lat="45.23911" lon="4.80626">
        <ele>131.51360887323</ele>
        <time>2015-07-11T13:05:29Z</time>
      </trkpt>
      <trkpt lat="45.23911" lon="4.80626">
        <ele>131.51360887323</ele>
        <time>2015-07-11T13:05:29Z</time>
      </trkpt>
      <trkpt lat="45.23911" lon="4.80626">
        <ele>131.51360887323</ele>
        <time>2015-07-11T13:05:29Z</time>
      </trkpt>
      <trkpt lat="45.2391" lon="4.80627">
        <ele>131.50952085194</ele>
        <time>2015-07-11T13:05:30Z</time>
      </trkpt>
      <trkpt lat="45.2391" lon="4.80627">
        <ele>131.50837415968</ele>
        <time>2015-07-11T13:05:30Z</time>
      </trkpt>
      <trkpt lat="45.2391" lon="4.80627">
        <ele>131.50837415968</ele>
        <time>2015-07-11T13:05:30Z</time>
      </trkpt>
      <trkpt lat="45.23905" lon="4.80632">
        <ele>131.44405851803</ele>
        <time>2015-07-11T13:05:32Z</time>
      </trkpt>
      <trkpt lat="45.23889" lon="4.80644">
        <ele>131.21680418521</ele>
        <time>2015-07-11T13:05:40Z</time>
      </trkpt>
      <trkpt lat="45.23867" lon="4.80652">
        <ele>130.88</ele>
        <time>2015-07-11T13:05:49Z</time>
      </trkpt>
      <trkpt lat="45.23851" lon="4.80655">
        <ele>130.65609434212</ele>
        <time>2015-07-11T13:05:55Z</time>
      </trkpt>
      <trkpt lat="45.23851" lon="4.80655">
        <ele>130.6508720909</ele>
        <time>2015-07-11T13:05:55Z</time>
      </trkpt>
      <trkpt lat="45.23851" lon="4.80655">
        <ele>130.6508720909</ele>
        <time>2015-07-11T13:05:55Z</time>
      </trkpt>
      <trkpt lat="45.23851" lon="4.80655">
        <ele>130.6508720909</ele>
        <time>2015-07-11T13:05:55Z</time>
      </trkpt>
      <trkpt lat="45.23851" lon="4.80655">
        <ele>130.6508720909</ele>
        <time>2015-07-11T13:05:55Z</time>
      </trkpt>
      <trkpt lat="45.23851" lon="4.80655">
        <ele>130.6508720909</ele>
        <time>2015-07-11T13:05:55Z</time>
      </trkpt>
      <trkpt lat="45.23851" lon="4.80654">
        <ele>130.64140413183</ele>
        <time>2015-07-11T13:05:55Z</time>
      </trkpt>
      <trkpt lat="45.23849" lon="4.80652">
        <ele>130.6082208277</ele>
        <time>2015-07-11T13:05:56Z</time>
      </trkpt>
      <trkpt lat="45.23849" lon="4.80652">
        <ele>130.6082208277</ele>
        <time>2015-07-11T13:05:56Z</time>
      </trkpt>
      <trkpt lat="45.23839" lon="4.80637">
        <ele>130.43267805689</ele>
        <time>2015-07-11T13:06:02Z</time>
      </trkpt>
      <trkpt lat="45.2381" lon="4.80609">
        <ele>130.28</ele>
        <time>2015-07-11T13:06:16Z</time>
      </trkpt>
      <trkpt lat="45.23779" lon="4.80579">
        <ele>130.62840551666</ele>
        <time>2015-07-11T13:06:31Z</time>
      </trkpt>
      <trkpt lat="45.23756" lon="4.80559">
        <ele>130.98521000622</ele>
        <time>2015-07-11T13:06:42Z</time>
      </trkpt>
      <trkpt lat="45.23726" lon="4.80534">
        <ele>131.18</ele>
        <time>2015-07-11T13:06:56Z</time>
      </trkpt>
      <trkpt lat="45.23696" lon="4.80511">
        <ele>130.86462891355</ele>
        <time>2015-07-11T13:07:10Z</time>
      </trkpt>
      <trkpt lat="45.2369" lon="4.80509">
        <ele>130.79875780269</ele>
        <time>2015-07-11T13:07:12Z</time>
      </trkpt>
      <trkpt lat="45.23675" lon="4.80503">
        <ele>130.63544035862</ele>
        <time>2015-07-11T13:07:18Z</time>
      </trkpt>
      <trkpt lat="45.23665" lon="4.805">
        <ele>130.58360455662</ele>
        <time>2015-07-11T13:07:22Z</time>
      </trkpt>
      <trkpt lat="45.23648" lon="4.80496">
        <ele>130.64</ele>
        <time>2015-07-11T13:07:29Z</time>
      </trkpt>
      <trkpt lat="45.23637" lon="4.80494">
        <ele>130.81217606067</ele>
        <time>2015-07-11T13:07:34Z</time>
      </trkpt>
      <trkpt lat="45.23631" lon="4.80492">
        <ele>130.93736097475</ele>
        <time>2015-07-11T13:07:36Z</time>
      </trkpt>
      <trkpt lat="45.23607" lon="4.80486">
        <ele>131.51753638732</ele>
        <time>2015-07-11T13:07:46Z</time>
      </trkpt>
      <trkpt lat="45.23571" lon="4.80479">
        <ele>131.99</ele>
        <time>2015-07-11T13:08:00Z</time>
      </trkpt>
      <trkpt lat="45.2354" lon="4.80474">
        <ele>131.44575589224</ele>
        <time>2015-07-11T13:08:13Z</time>
      </trkpt>
      <trkpt lat="45.23495" lon="4.80463">
        <ele>130.08</ele>
        <time>2015-07-11T13:08:31Z</time>
      </trkpt>
      <trkpt lat="45.23451" lon="4.80454">
        <ele>129.55306581817</ele>
        <time>2015-07-11T13:08:49Z</time>
      </trkpt>
      <trkpt lat="45.23415" lon="4.80446">
        <ele>129.34</ele>
        <time>2015-07-11T13:09:03Z</time>
      </trkpt>
      <trkpt lat="45.23379" lon="4.80432">
        <ele>128.92811776193</ele>
        <time>2015-07-11T13:09:18Z</time>
      </trkpt>
      <trkpt lat="45.23363" lon="4.80427">
        <ele>128.8636111333</ele>
        <time>2015-07-11T13:09:25Z</time>
      </trkpt>
      <trkpt lat="45.23351" lon="4.80424">
        <ele>128.92887046431</ele>
        <time>2015-07-11T13:09:30Z</time>
      </trkpt>
      <trkpt lat="45.23346" lon="4.80424">
        <ele>129.01</ele>
        <time>2015-07-11T13:09:32Z</time>
      </trkpt>
      <trkpt lat="45.23319" lon="4.80422">
        <ele>129.77611294534</ele>
        <time>2015-07-11T13:09:43Z</time>
      </trkpt>
      <trkpt lat="45.23304" lon="4.80424">
        <ele>130.37274317554</ele>
        <time>2015-07-11T13:09:49Z</time>
      </trkpt>
      <trkpt lat="45.23284" lon="4.8043">
        <ele>131.29073931222</ele>
        <time>2015-07-11T13:09:57Z</time>
      </trkpt>
      <trkpt lat="45.23265" lon="4.80439">
        <ele>132.05715402281</ele>
        <time>2015-07-11T13:10:05Z</time>
      </trkpt>
      <trkpt lat="45.23253" lon="4.8044">
        <ele>132.44</ele>
        <time>2015-07-11T13:10:10Z</time>
      </trkpt>
      <trkpt lat="45.23211" lon="4.80441">
        <ele>132.9329901089</ele>
        <time>2015-07-11T13:10:27Z</time>
      </trkpt>
      <trkpt lat="45.23205" lon="4.8044">
        <ele>132.92590262067</ele>
        <time>2015-07-11T13:10:29Z</time>
      </trkpt>
      <trkpt lat="45.23181" lon="4.80435">
        <ele>132.8</ele>
        <time>2015-07-11T13:10:39Z</time>
      </trkpt>
      <trkpt lat="45.23143" lon="4.80433">
        <ele>132.4893042186</ele>
        <time>2015-07-11T13:10:54Z</time>
      </trkpt>
      <trkpt lat="45.23138" lon="4.80433">
        <ele>132.44058632364</ele>
        <time>2015-07-11T13:10:56Z</time>
      </trkpt>
      <trkpt lat="45.23119" lon="4.80431">
        <ele>132.29</ele>
        <time>2015-07-11T13:11:03Z</time>
      </trkpt>
      <trkpt lat="45.23074" lon="4.80426">
        <ele>132.02824075446</ele>
        <time>2015-07-11T13:11:21Z</time>
      </trkpt>
      <trkpt lat="45.23058" lon="4.80425">
        <ele>131.961061197</ele>
        <time>2015-07-11T13:11:28Z</time>
      </trkpt>
      <trkpt lat="45.23056" lon="4.80425">
        <ele>131.95218202876</ele>
        <time>2015-07-11T13:11:29Z</time>
      </trkpt>
      <trkpt lat="45.23056" lon="4.80425">
        <ele>131.95218202876</ele>
        <time>2015-07-11T13:11:29Z</time>
      </trkpt>
      <trkpt lat="45.23056" lon="4.80425">
        <ele>131.95218202876</ele>
        <time>2015-07-11T13:11:29Z</time>
      </trkpt>
      <trkpt lat="45.23056" lon="4.80425">
        <ele>131.95218202876</ele>
        <time>2015-07-11T13:11:29Z</time>
      </trkpt>
      <trkpt lat="45.23056" lon="4.80425">
        <ele>131.95218202876</ele>
        <time>2015-07-11T13:11:29Z</time>
      </trkpt>
      <trkpt lat="45.23056" lon="4.80425">
        <ele>131.95218202876</ele>
        <time>2015-07-11T13:11:29Z</time>
      </trkpt>
      <trkpt lat="45.23056" lon="4.80425">
        <ele>131.95218202876</ele>
        <time>2015-07-11T13:11:29Z</time>
      </trkpt>
      <trkpt lat="45.23054" lon="4.80424">
        <ele>131.94537545181</ele>
        <time>2015-07-11T13:11:30Z</time>
      </trkpt>
      <trkpt lat="45.23042" lon="4.80419">
        <ele>131.90069366717</ele>
        <time>2015-07-11T13:11:35Z</time>
      </trkpt>
      <trkpt lat="45.23019" lon="4.80412">
        <ele>131.83</ele>
        <time>2015-07-11T13:11:44Z</time>
      </trkpt>
      <trkpt lat="45.23002" lon="4.80409">
        <ele>131.77988729655</ele>
        <time>2015-07-11T13:11:51Z</time>
      </trkpt>
      <trkpt lat="45.22986" lon="4.80408">
        <ele>131.7294627072</ele>
        <time>2015-07-11T13:11:57Z</time>
      </trkpt>
      <trkpt lat="45.22978" lon="4.80407">
        <ele>131.70035153877</ele>
        <time>2015-07-11T13:12:01Z</time>
      </trkpt>
      <trkpt lat="45.2296" lon="4.80406">
        <ele>131.62</ele>
        <time>2015-07-11T13:12:08Z</time>
      </trkpt>
      <trkpt lat="45.2292" lon="4.80405">
        <ele>131.37067412982</ele>
        <time>2015-07-11T13:12:24Z</time>
      </trkpt>
      <trkpt lat="45.22894" lon="4.80407">
        <ele>131.19916866851</ele>
        <time>2015-07-11T13:12:34Z</time>
      </trkpt>
      <trkpt lat="45.22867" lon="4.80408">
        <ele>131.07464363756</ele>
        <time>2015-07-11T13:12:45Z</time>
      </trkpt>
      <trkpt lat="45.22849" lon="4.80411">
        <ele>131.04</ele>
        <time>2015-07-11T13:12:52Z</time>
      </trkpt>
      <trkpt lat="45.22829" lon="4.80416">
        <ele>131.05412839444</ele>
        <time>2015-07-11T13:13:00Z</time>
      </trkpt>
      <trkpt lat="45.22775" lon="4.80432">
        <ele>131</ele>
        <time>2015-07-11T13:13:22Z</time>
      </trkpt>
      <trkpt lat="45.22749" lon="4.80441">
        <ele>130.71677471085</ele>
        <time>2015-07-11T13:13:33Z</time>
      </trkpt>
      <trkpt lat="45.22729" lon="4.80448">
        <ele>130.42770433054</ele>
        <time>2015-07-11T13:13:41Z</time>
      </trkpt>
      <trkpt lat="45.22694" lon="4.8046">
        <ele>130.01</ele>
        <time>2015-07-11T13:13:56Z</time>
      </trkpt>
      <trkpt lat="45.22675" lon="4.80467">
        <ele>129.91128978617</ele>
        <time>2015-07-11T13:14:04Z</time>
      </trkpt>
      <trkpt lat="45.2267" lon="4.80469">
        <ele>129.90148245228</ele>
        <time>2015-07-11T13:14:05Z</time>
      </trkpt>
      <trkpt lat="45.22652" lon="4.80476">
        <ele>129.89189150502</ele>
        <time>2015-07-11T13:14:13Z</time>
      </trkpt>
      <trkpt lat="45.22642" lon="4.80479">
        <ele>129.89585780965</ele>
        <time>2015-07-11T13:14:17Z</time>
      </trkpt>
      <trkpt lat="45.22621" lon="4.80488">
        <ele>129.88892774853</ele>
        <time>2015-07-11T13:14:26Z</time>
      </trkpt>
      <trkpt lat="45.22611" lon="4.80493">
        <ele>129.86</ele>
        <time>2015-07-11T13:14:30Z</time>
      </trkpt>
      <trkpt lat="45.22591" lon="4.80505">
        <ele>129.73276257011</ele>
        <time>2015-07-11T13:14:39Z</time>
      </trkpt>
      <trkpt lat="45.2255" lon="4.80528">
        <ele>129.33</ele>
        <time>2015-07-11T13:14:57Z</time>
      </trkpt>
      <trkpt lat="45.22508" lon="4.80549">
        <ele>128.95913828011</ele>
        <time>2015-07-11T13:15:14Z</time>
      </trkpt>
      <trkpt lat="45.22471" lon="4.80573">
        <ele>128.60642217436</ele>
        <time>2015-07-11T13:15:31Z</time>
      </trkpt>
      <trkpt lat="45.2246" lon="4.80579">
        <ele>128.49</ele>
        <time>2015-07-11T13:15:36Z</time>
      </trkpt>
      <trkpt lat="45.22418" lon="4.806">
        <ele>128.21</ele>
        <time>2015-07-11T13:15:53Z</time>
      </trkpt>
      <trkpt lat="45.22379" lon="4.80621">
        <ele>128.75908315269</ele>
        <time>2015-07-11T13:16:10Z</time>
      </trkpt>
      <trkpt lat="45.22343" lon="4.8064">
        <ele>129.28</ele>
        <time>2015-07-11T13:16:25Z</time>
      </trkpt>
      <trkpt lat="45.22298" lon="4.80662">
        <ele>128.92546987894</ele>
        <time>2015-07-11T13:16:44Z</time>
      </trkpt>
      <trkpt lat="45.22242" lon="4.80689">
        <ele>128</ele>
        <time>2015-07-11T13:17:08Z</time>
      </trkpt>
      <trkpt lat="45.22201" lon="4.80709">
        <ele>127.88077750554</ele>
        <time>2015-07-11T13:17:25Z</time>
      </trkpt>
      <trkpt lat="45.22196" lon="4.80711">
        <ele>127.89597607928</ele>
        <time>2015-07-11T13:17:28Z</time>
      </trkpt>
      <trkpt lat="45.2219" lon="4.80713">
        <ele>127.91480622604</ele>
        <time>2015-07-11T13:17:30Z</time>
      </trkpt>
      <trkpt lat="45.22184" lon="4.80716">
        <ele>127.93710458771</ele>
        <time>2015-07-11T13:17:32Z</time>
      </trkpt>
      <trkpt lat="45.22178" lon="4.80718">
        <ele>127.96035420676</ele>
        <time>2015-07-11T13:17:35Z</time>
      </trkpt>
      <trkpt lat="45.22168" lon="4.80723">
        <ele>128</ele>
        <time>2015-07-11T13:17:39Z</time>
      </trkpt>
      <trkpt lat="45.22143" lon="4.80733">
        <ele>128.06191890078</ele>
        <time>2015-07-11T13:17:50Z</time>
      </trkpt>
      <trkpt lat="45.2214" lon="4.80734">
        <ele>128.06493631452</ele>
        <time>2015-07-11T13:17:51Z</time>
      </trkpt>
      <trkpt lat="45.22141" lon="4.80734">
        <ele>128.06517719184</ele>
        <time>2015-07-11T13:17:51Z</time>
      </trkpt>
      <trkpt lat="45.22139" lon="4.80735">
        <ele>128.06666085098</ele>
        <time>2015-07-11T13:17:51Z</time>
      </trkpt>
      <trkpt lat="45.22139" lon="4.80735">
        <ele>128.06666085098</ele>
        <time>2015-07-11T13:17:51Z</time>
      </trkpt>
      <trkpt lat="45.22128" lon="4.80739">
        <ele>128.06842513434</ele>
        <time>2015-07-11T13:17:56Z</time>
      </trkpt>
      <trkpt lat="45.22102" lon="4.80752">
        <ele>128.01</ele>
        <time>2015-07-11T13:18:07Z</time>
      </trkpt>
      <trkpt lat="45.22068" lon="4.80767">
        <ele>127.812823501</ele>
        <time>2015-07-11T13:18:21Z</time>
      </trkpt>
      <trkpt lat="45.22042" lon="4.80781">
        <ele>127.64476080872</ele>
        <time>2015-07-11T13:18:32Z</time>
      </trkpt>
      <trkpt lat="45.22037" lon="4.80783">
        <ele>127.61968807079</ele>
        <time>2015-07-11T13:18:35Z</time>
      </trkpt>
      <trkpt lat="45.22031" lon="4.80784">
        <ele>127.59618621563</ele>
        <time>2015-07-11T13:18:37Z</time>
      </trkpt>
      <trkpt lat="45.22007" lon="4.8079">
        <ele>127.56</ele>
        <time>2015-07-11T13:18:47Z</time>
      </trkpt>
      <trkpt lat="45.21957" lon="4.80807">
        <ele>127.98567980414</ele>
        <time>2015-07-11T13:19:07Z</time>
      </trkpt>
      <trkpt lat="45.21919" lon="4.80824">
        <ele>128.95</ele>
        <time>2015-07-11T13:19:23Z</time>
      </trkpt>
      <trkpt lat="45.21903" lon="4.80836">
        <ele>129.62786530654</ele>
        <time>2015-07-11T13:19:30Z</time>
      </trkpt>
      <trkpt lat="45.219" lon="4.80841">
        <ele>129.80088471009</ele>
        <time>2015-07-11T13:19:32Z</time>
      </trkpt>
      <trkpt lat="45.21889" lon="4.80844">
        <ele>130.24738038585</ele>
        <time>2015-07-11T13:19:37Z</time>
      </trkpt>
      <trkpt lat="45.21872" lon="4.80842">
        <ele>130.84285139602</ele>
        <time>2015-07-11T13:19:43Z</time>
      </trkpt>
      <trkpt lat="45.21868" lon="4.80843">
        <ele>130.99856971781</ele>
        <time>2015-07-11T13:19:45Z</time>
      </trkpt>
      <trkpt lat="45.21863" lon="4.80844">
        <ele>131.12378353991</ele>
        <time>2015-07-11T13:19:47Z</time>
      </trkpt>
      <trkpt lat="45.21852" lon="4.80848">
        <ele>131.42</ele>
        <time>2015-07-11T13:19:52Z</time>
      </trkpt>
      <trkpt lat="45.21827" lon="4.80855">
        <ele>131.71880418805</ele>
        <time>2015-07-11T13:20:02Z</time>
      </trkpt>
      <trkpt lat="45.21822" lon="4.80857">
        <ele>131.73409400026</ele>
        <time>2015-07-11T13:20:04Z</time>
      </trkpt>
      <trkpt lat="45.21789" lon="4.80863">
        <ele>131.67</ele>
        <time>2015-07-11T13:20:17Z</time>
      </trkpt>
      <trkpt lat="45.21742" lon="4.80872">
        <ele>131.55341798202</ele>
        <time>2015-07-11T13:20:36Z</time>
      </trkpt>
      <trkpt lat="45.21684" lon="4.80887">
        <ele>131.65</ele>
        <time>2015-07-11T13:21:00Z</time>
      </trkpt>
      <trkpt lat="45.21678" lon="4.80889">
        <ele>131.68137353531</ele>
        <time>2015-07-11T13:21:02Z</time>
      </trkpt>
      <trkpt lat="45.2163" lon="4.80903">
        <ele>131.91</ele>
        <time>2015-07-11T13:21:22Z</time>
      </trkpt>
      <trkpt lat="45.21582" lon="4.80912">
        <ele>131.81496457985</ele>
        <time>2015-07-11T13:21:42Z</time>
      </trkpt>
      <trkpt lat="45.21535" lon="4.80921">
        <ele>131.67</ele>
        <time>2015-07-11T13:22:00Z</time>
      </trkpt>
      <trkpt lat="45.21498" lon="4.80927">
        <ele>131.70982081574</ele>
        <time>2015-07-11T13:22:15Z</time>
      </trkpt>
      <trkpt lat="45.21459" lon="4.80938">
        <ele>131.67648185504</ele>
        <time>2015-07-11T13:22:31Z</time>
      </trkpt>
      <trkpt lat="45.21453" lon="4.8094">
        <ele>131.64</ele>
        <time>2015-07-11T13:22:34Z</time>
      </trkpt>
      <trkpt lat="45.21412" lon="4.80952">
        <ele>131.13</ele>
        <time>2015-07-11T13:22:50Z</time>
      </trkpt>
      <trkpt lat="45.21355" lon="4.80968">
        <ele>129.98272629171</ele>
        <time>2015-07-11T13:23:14Z</time>
      </trkpt>
      <trkpt lat="45.21316" lon="4.80978">
        <ele>129.42</ele>
        <time>2015-07-11T13:23:30Z</time>
      </trkpt>
      <trkpt lat="45.2127" lon="4.80988">
        <ele>129.35470757847</ele>
        <time>2015-07-11T13:23:48Z</time>
      </trkpt>
      <trkpt lat="45.21225" lon="4.81">
        <ele>129.4</ele>
        <time>2015-07-11T13:24:06Z</time>
      </trkpt>
      <trkpt lat="45.21185" lon="4.81018">
        <ele>129.20599231787</ele>
        <time>2015-07-11T13:24:23Z</time>
      </trkpt>
      <trkpt lat="45.2118" lon="4.81019">
        <ele>129.20085043739</ele>
        <time>2015-07-11T13:24:25Z</time>
      </trkpt>
      <trkpt lat="45.21158" lon="4.81028">
        <ele>129.34</ele>
        <time>2015-07-11T13:24:34Z</time>
      </trkpt>
      <trkpt lat="45.21118" lon="4.81047">
        <ele>130.29787356697</ele>
        <time>2015-07-11T13:24:51Z</time>
      </trkpt>
      <trkpt lat="45.21073" lon="4.8107">
        <ele>131.03</ele>
        <time>2015-07-11T13:25:11Z</time>
      </trkpt>
      <trkpt lat="45.21034" lon="4.81089">
        <ele>130.18241078386</ele>
        <time>2015-07-11T13:25:27Z</time>
      </trkpt>
      <trkpt lat="45.21001" lon="4.81107">
        <ele>129.32</ele>
        <time>2015-07-11T13:25:41Z</time>
      </trkpt>
      <trkpt lat="45.20962" lon="4.81129">
        <ele>129.29662061164</ele>
        <time>2015-07-11T13:25:58Z</time>
      </trkpt>
      <trkpt lat="45.20928" lon="4.81147">
        <ele>129.56</ele>
        <time>2015-07-11T13:26:12Z</time>
      </trkpt>
      <trkpt lat="45.20898" lon="4.81164">
        <ele>129.43148106895</ele>
        <time>2015-07-11T13:26:25Z</time>
      </trkpt>
      <trkpt lat="45.20879" lon="4.81184">
        <ele>129.13965172062</ele>
        <time>2015-07-11T13:26:35Z</time>
      </trkpt>
      <trkpt lat="45.20861" lon="4.81205">
        <ele>128.80097879205</ele>
        <time>2015-07-11T13:26:44Z</time>
      </trkpt>
      <trkpt lat="45.20845" lon="4.81221">
        <ele>128.53423981115</ele>
        <time>2015-07-11T13:26:52Z</time>
      </trkpt>
      <trkpt lat="45.20837" lon="4.81227">
        <ele>128.42</ele>
        <time>2015-07-11T13:26:56Z</time>
      </trkpt>
      <trkpt lat="45.20824" lon="4.81231">
        <ele>128.29636347092</ele>
        <time>2015-07-11T13:27:01Z</time>
      </trkpt>
      <trkpt lat="45.20802" lon="4.81244">
        <ele>128.14037303045</ele>
        <time>2015-07-11T13:27:10Z</time>
      </trkpt>
      <trkpt lat="45.20786" lon="4.81256">
        <ele>128.07</ele>
        <time>2015-07-11T13:27:18Z</time>
      </trkpt>
      <trkpt lat="45.20753" lon="4.81268">
        <ele>128.01838860758</ele>
        <time>2015-07-11T13:27:31Z</time>
      </trkpt>
      <trkpt lat="45.20729" lon="4.81279">
        <ele>128.06207861486</ele>
        <time>2015-07-11T13:27:41Z</time>
      </trkpt>
      <trkpt lat="45.20702" lon="4.81292">
        <ele>128.22</ele>
        <time>2015-07-11T13:27:53Z</time>
      </trkpt>
      <trkpt lat="45.20664" lon="4.81311">
        <ele>128.66255970864</ele>
        <time>2015-07-11T13:28:09Z</time>
      </trkpt>
      <trkpt lat="45.20638" lon="4.81327">
        <ele>129.04259594981</ele>
        <time>2015-07-11T13:28:20Z</time>
      </trkpt>
      <trkpt lat="45.20622" lon="4.81342">
        <ele>129.28896447253</ele>
        <time>2015-07-11T13:28:28Z</time>
      </trkpt>
      <trkpt lat="45.20615" lon="4.8135">
        <ele>129.4</ele>
        <time>2015-07-11T13:28:32Z</time>
      </trkpt>
      <trkpt lat="45.20593" lon="4.81355">
        <ele>129.6247007525</ele>
        <time>2015-07-11T13:28:40Z</time>
      </trkpt>
      <trkpt lat="45.20572" lon="4.81361">
        <ele>129.79478300003</ele>
        <time>2015-07-11T13:28:49Z</time>
      </trkpt>
      <trkpt lat="45.20564" lon="4.81371">
        <ele>129.84789152658</ele>
        <time>2015-07-11T13:28:53Z</time>
      </trkpt>
      <trkpt lat="45.20559" lon="4.8138">
        <ele>129.88083433653</ele>
        <time>2015-07-11T13:28:57Z</time>
      </trkpt>
      <trkpt lat="45.20553" lon="4.81386">
        <ele>129.9</ele>
        <time>2015-07-11T13:29:00Z</time>
      </trkpt>
      <trkpt lat="45.20535" lon="4.8139">
        <ele>129.90980509917</ele>
        <time>2015-07-11T13:29:07Z</time>
      </trkpt>
      <trkpt lat="45.20496" lon="4.81393">
        <ele>129.82779379858</ele>
        <time>2015-07-11T13:29:22Z</time>
      </trkpt>
      <trkpt lat="45.20459" lon="4.81392">
        <ele>129.75</ele>
        <time>2015-07-11T13:29:37Z</time>
      </trkpt>
      <trkpt lat="45.20428" lon="4.81392">
        <ele>129.76945163973</ele>
        <time>2015-07-11T13:29:49Z</time>
      </trkpt>
      <trkpt lat="45.20423" lon="4.81392">
        <ele>129.77729713852</ele>
        <time>2015-07-11T13:29:52Z</time>
      </trkpt>
      <trkpt lat="45.20385" lon="4.81391">
        <ele>129.81</ele>
        <time>2015-07-11T13:30:07Z</time>
      </trkpt>
      <trkpt lat="45.20358" lon="4.81394">
        <ele>129.77211354083</ele>
        <time>2015-07-11T13:30:18Z</time>
      </trkpt>
      <trkpt lat="45.20336" lon="4.81394">
        <ele>129.75530587295</ele>
        <time>2015-07-11T13:30:27Z</time>
      </trkpt>
      <trkpt lat="45.20322" lon="4.8139">
        <ele>129.77935664563</ele>
        <time>2015-07-11T13:30:32Z</time>
      </trkpt>
      <trkpt lat="45.20313" lon="4.81386">
        <ele>129.81548953683</ele>
        <time>2015-07-11T13:30:36Z</time>
      </trkpt>
      <trkpt lat="45.20298" lon="4.81379">
        <ele>129.94</ele>
        <time>2015-07-11T13:30:42Z</time>
      </trkpt>
      <trkpt lat="45.20281" lon="4.81369">
        <ele>130.16542876561</ele>
        <time>2015-07-11T13:30:50Z</time>
      </trkpt>
      <trkpt lat="45.20258" lon="4.81352">
        <ele>130.47260833674</ele>
        <time>2015-07-11T13:31:00Z</time>
      </trkpt>
      <trkpt lat="45.20226" lon="4.81336">
        <ele>130.37</ele>
        <time>2015-07-11T13:31:14Z</time>
      </trkpt>
      <trkpt lat="45.20212" lon="4.81323">
        <ele>129.95531302063</ele>
        <time>2015-07-11T13:31:20Z</time>
      </trkpt>
      <trkpt lat="45.20187" lon="4.813">
        <ele>129.27074791097</ele>
        <time>2015-07-11T13:31:32Z</time>
      </trkpt>
      <trkpt lat="45.20168" lon="4.81276">
        <ele>129.6</ele>
        <time>2015-07-11T13:31:43Z</time>
      </trkpt>
      <trkpt lat="45.20144" lon="4.81242">
        <ele>132.10269229305</ele>
        <time>2015-07-11T13:31:56Z</time>
      </trkpt>
      <trkpt lat="45.20116" lon="4.81202">
        <ele>135.21</ele>
        <time>2015-07-11T13:32:12Z</time>
      </trkpt>
      <trkpt lat="45.20093" lon="4.81163">
        <ele>135.39793765809</ele>
        <time>2015-07-11T13:32:27Z</time>
      </trkpt>
      <trkpt lat="45.20063" lon="4.81105">
        <ele>133.14</ele>
        <time>2015-07-11T13:32:47Z</time>
      </trkpt>
      <trkpt lat="45.20041" lon="4.81059">
        <ele>131.62883510972</ele>
        <time>2015-07-11T13:33:03Z</time>
      </trkpt>
      <trkpt lat="45.20014" lon="4.81006">
        <ele>130.87</ele>
        <time>2015-07-11T13:33:21Z</time>
      </trkpt>
      <trkpt lat="45.19991" lon="4.80965">
        <ele>130.93685280571</ele>
        <time>2015-07-11T13:33:36Z</time>
      </trkpt>
      <trkpt lat="45.19958" lon="4.80915">
        <ele>130.94</ele>
        <time>2015-07-11T13:33:55Z</time>
      </trkpt>
      <trkpt lat="45.19929" lon="4.80883">
        <ele>130.24389016681</ele>
        <time>2015-07-11T13:34:10Z</time>
      </trkpt>
      <trkpt lat="45.19895" lon="4.80843">
        <ele>129.33</ele>
        <time>2015-07-11T13:34:27Z</time>
      </trkpt>
      <trkpt lat="45.19863" lon="4.80805">
        <ele>129.24683709903</ele>
        <time>2015-07-11T13:34:44Z</time>
      </trkpt>
      <trkpt lat="45.19854" lon="4.80799">
        <ele>129.36105036798</ele>
        <time>2015-07-11T13:34:48Z</time>
      </trkpt>
      <trkpt lat="45.19841" lon="4.80793">
        <ele>129.59587178194</ele>
        <time>2015-07-11T13:34:54Z</time>
      </trkpt>
      <trkpt lat="45.19828" lon="4.80788">
        <ele>129.92</ele>
        <time>2015-07-11T13:34:59Z</time>
      </trkpt>
      <trkpt lat="45.1981" lon="4.80785">
        <ele>130.48056894813</ele>
        <time>2015-07-11T13:35:06Z</time>
      </trkpt>
      <trkpt lat="45.19782" lon="4.80784">
        <ele>131.31966604505</ele>
        <time>2015-07-11T13:35:17Z</time>
      </trkpt>
      <trkpt lat="45.19774" lon="4.80784">
        <ele>131.52474992726</ele>
        <time>2015-07-11T13:35:21Z</time>
      </trkpt>
      <trkpt lat="45.19756" lon="4.80783">
        <ele>131.77</ele>
        <time>2015-07-11T13:35:28Z</time>
      </trkpt>
      <trkpt lat="45.19737" lon="4.80779">
        <ele>131.69947596237</ele>
        <time>2015-07-11T13:35:36Z</time>
      </trkpt>
      <trkpt lat="45.19727" lon="4.80776">
        <ele>131.54676872578</ele>
        <time>2015-07-11T13:35:40Z</time>
      </trkpt>
      <trkpt lat="45.19705" lon="4.8077">
        <ele>131.00449849763</ele>
        <time>2015-07-11T13:35:49Z</time>
      </trkpt>
      <trkpt lat="45.19701" lon="4.80771">
        <ele>130.87229460985</ele>
        <time>2015-07-11T13:35:50Z</time>
      </trkpt>
      <trkpt lat="45.19696" lon="4.8077">
        <ele>130.73366787058</ele>
        <time>2015-07-11T13:35:52Z</time>
      </trkpt>
      <trkpt lat="45.19674" lon="4.80768">
        <ele>130.09</ele>
        <time>2015-07-11T13:36:01Z</time>
      </trkpt>
      <trkpt lat="45.19621" lon="4.80763">
        <ele>128.97</ele>
        <time>2015-07-11T13:36:23Z</time>
      </trkpt>
      <trkpt lat="45.19569" lon="4.80764">
        <ele>128.65623975791</ele>
        <time>2015-07-11T13:36:43Z</time>
      </trkpt>
      <trkpt lat="45.19522" lon="4.80767">
        <ele>128.82969841649</ele>
        <time>2015-07-11T13:37:02Z</time>
      </trkpt>
      <trkpt lat="45.195" lon="4.80767">
        <ele>128.9976701314</ele>
        <time>2015-07-11T13:37:11Z</time>
      </trkpt>
      <trkpt lat="45.19499" lon="4.80767">
        <ele>129.00942493667</ele>
        <time>2015-07-11T13:37:11Z</time>
      </trkpt>
      <trkpt lat="45.19499" lon="4.80767">
        <ele>129.00942493667</ele>
        <time>2015-07-11T13:37:11Z</time>
      </trkpt>
      <trkpt lat="45.19499" lon="4.80767">
        <ele>129.00942493667</ele>
        <time>2015-07-11T13:37:11Z</time>
      </trkpt>
      <trkpt lat="45.19499" lon="4.80767">
        <ele>129.01</ele>
        <time>2015-07-11T13:37:11Z</time>
      </trkpt>
      <trkpt lat="45.19495" lon="4.80764">
        <ele>129.04948912449</ele>
        <time>2015-07-11T13:37:13Z</time>
      </trkpt>
      <trkpt lat="45.19478" lon="4.80757">
        <ele>129.19223200708</ele>
        <time>2015-07-11T13:37:20Z</time>
      </trkpt>
      <trkpt lat="45.19465" lon="4.80756">
        <ele>129.29316423919</ele>
        <time>2015-07-11T13:37:25Z</time>
      </trkpt>
      <trkpt lat="45.19456" lon="4.80758">
        <ele>129.35542036017</ele>
        <time>2015-07-11T13:37:29Z</time>
      </trkpt>
      <trkpt lat="45.19417" lon="4.80768">
        <ele>129.43</ele>
        <time>2015-07-11T13:37:45Z</time>
      </trkpt>
      <trkpt lat="45.19378" lon="4.80781">
        <ele>129.11</ele>
        <time>2015-07-11T13:38:01Z</time>
      </trkpt>
      <trkpt lat="45.19339" lon="4.808">
        <ele>128.64367665977</ele>
        <time>2015-07-11T13:38:18Z</time>
      </trkpt>
      <trkpt lat="45.19298" lon="4.80824">
        <ele>128.47</ele>
        <time>2015-07-11T13:38:35Z</time>
      </trkpt>
      <trkpt lat="45.19265" lon="4.80849">
        <ele>128.82754318702</ele>
        <time>2015-07-11T13:38:50Z</time>
      </trkpt>
      <trkpt lat="45.19237" lon="4.80868">
        <ele>129.31706389874</ele>
        <time>2015-07-11T13:39:03Z</time>
      </trkpt>
      <trkpt lat="45.19207" lon="4.80887">
        <ele>129.8</ele>
        <time>2015-07-11T13:39:16Z</time>
      </trkpt>
      <trkpt lat="45.19169" lon="4.80915">
        <ele>130.18044422369</ele>
        <time>2015-07-11T13:39:33Z</time>
      </trkpt>
      <trkpt lat="45.19129" lon="4.80943">
        <ele>130.53</ele>
        <time>2015-07-11T13:39:51Z</time>
      </trkpt>
      <trkpt lat="45.19087" lon="4.80971">
        <ele>130.96</ele>
        <time>2015-07-11T13:40:09Z</time>
      </trkpt>
      <trkpt lat="45.19041" lon="4.81003">
        <ele>130.57839989949</ele>
        <time>2015-07-11T13:40:30Z</time>
      </trkpt>
      <trkpt lat="45.19006" lon="4.81028">
        <ele>129.97880031173</ele>
        <time>2015-07-11T13:40:45Z</time>
      </trkpt>
      <trkpt lat="45.1898" lon="4.81045">
        <ele>129.67</ele>
        <time>2015-07-11T13:40:57Z</time>
      </trkpt>
      <trkpt lat="45.18934" lon="4.81077">
        <ele>129.64305140116</ele>
        <time>2015-07-11T13:41:17Z</time>
      </trkpt>
      <trkpt lat="45.18902" lon="4.81099">
        <ele>129.57</ele>
        <time>2015-07-11T13:41:32Z</time>
      </trkpt>
      <trkpt lat="45.1886" lon="4.81127">
        <ele>129.03</ele>
        <time>2015-07-11T13:41:50Z</time>
      </trkpt>
      <trkpt lat="45.18828" lon="4.81147">
        <ele>128.80351859696</ele>
        <time>2015-07-11T13:42:04Z</time>
      </trkpt>
      <trkpt lat="45.18798" lon="4.81163">
        <ele>128.86479637617</ele>
        <time>2015-07-11T13:42:17Z</time>
      </trkpt>
      <trkpt lat="45.18763" lon="4.81183">
        <ele>129.23</ele>
        <time>2015-07-11T13:42:32Z</time>
      </trkpt>
      <trkpt lat="45.18739" lon="4.81196">
        <ele>129.67153037113</ele>
        <time>2015-07-11T13:42:43Z</time>
      </trkpt>
      <trkpt lat="45.18712" lon="4.8121">
        <ele>130.22679789349</ele>
        <time>2015-07-11T13:42:54Z</time>
      </trkpt>
      <trkpt lat="45.18693" lon="4.8122">
        <ele>130.6430272316</ele>
        <time>2015-07-11T13:43:02Z</time>
      </trkpt>
      <trkpt lat="45.18692" lon="4.81221">
        <ele>130.65040774092</ele>
        <time>2015-07-11T13:43:02Z</time>
      </trkpt>
      <trkpt lat="45.18692" lon="4.81221">
        <ele>130.65040774092</ele>
        <time>2015-07-11T13:43:02Z</time>
      </trkpt>
      <trkpt lat="45.18692" lon="4.81221">
        <ele>130.65040774092</ele>
        <time>2015-07-11T13:43:02Z</time>
      </trkpt>
      <trkpt lat="45.18692" lon="4.81221">
        <ele>130.65172621755</ele>
        <time>2015-07-11T13:43:02Z</time>
      </trkpt>
      <trkpt lat="45.18692" lon="4.81221">
        <ele>130.65172621755</ele>
        <time>2015-07-11T13:43:02Z</time>
      </trkpt>
      <trkpt lat="45.18691" lon="4.81221">
        <ele>130.67626733488</ele>
        <time>2015-07-11T13:43:03Z</time>
      </trkpt>
      <trkpt lat="45.18686" lon="4.81226">
        <ele>130.78631249523</ele>
        <time>2015-07-11T13:43:05Z</time>
      </trkpt>
      <trkpt lat="45.18686" lon="4.81226">
        <ele>130.78631249523</ele>
        <time>2015-07-11T13:43:05Z</time>
      </trkpt>
      <trkpt lat="45.18686" lon="4.81226">
        <ele>130.78631249523</ele>
        <time>2015-07-11T13:43:05Z</time>
      </trkpt>
      <trkpt lat="45.18686" lon="4.81226">
        <ele>130.78631249523</ele>
        <time>2015-07-11T13:43:05Z</time>
      </trkpt>
      <trkpt lat="45.18686" lon="4.81226">
        <ele>130.78726401155</ele>
        <time>2015-07-11T13:43:05Z</time>
      </trkpt>
      <trkpt lat="45.18686" lon="4.81226">
        <ele>130.78726401155</ele>
        <time>2015-07-11T13:43:05Z</time>
      </trkpt>
      <trkpt lat="45.18686" lon="4.81226">
        <ele>130.78726401155</ele>
        <time>2015-07-11T13:43:05Z</time>
      </trkpt>
      <trkpt lat="45.18686" lon="4.81226">
        <ele>130.79</ele>
        <time>2015-07-11T13:43:05Z</time>
      </trkpt>
      <trkpt lat="45.18601" lon="4.81268">
        <ele>132.00024877238</ele>
        <time>2015-07-11T13:43:42Z</time>
      </trkpt>
      <trkpt lat="45.18525" lon="4.81306">
        <ele>132.33</ele>
        <time>2015-07-11T13:44:14Z</time>
      </trkpt>
      <trkpt lat="45.18448" lon="4.81345">
        <ele>131.27808108606</ele>
        <time>2015-07-11T13:44:46Z</time>
      </trkpt>
      <trkpt lat="45.18434" lon="4.81352">
        <ele>130.68</ele>
        <time>2015-07-11T13:44:52Z</time>
      </trkpt>
      <trkpt lat="45.18416" lon="4.8125">
        <ele>127</ele>
        <time>2015-07-11T13:45:22Z</time>
      </trkpt>
      <trkpt lat="45.18391" lon="4.8112">
        <ele>129.23948042063</ele>
        <time>2015-07-11T13:46:00Z</time>
      </trkpt>
      <trkpt lat="45.18381" lon="4.81065">
        <ele>130.72252650649</ele>
        <time>2015-07-11T13:46:16Z</time>
      </trkpt>
      <trkpt lat="45.18378" lon="4.81051">
        <ele>130.94</ele>
        <time>2015-07-11T13:46:20Z</time>
      </trkpt>
      <trkpt lat="45.18362" lon="4.8095">
        <ele>130.85242959176</ele>
        <time>2015-07-11T13:46:50Z</time>
      </trkpt>
      <trkpt lat="45.18358" lon="4.80941">
        <ele>130.85870377655</ele>
        <time>2015-07-11T13:46:52Z</time>
      </trkpt>
      <trkpt lat="45.18355" lon="4.80934">
        <ele>130.89</ele>
        <time>2015-07-11T13:46:55Z</time>
      </trkpt>
      <trkpt lat="45.1835" lon="4.80932">
        <ele>130.9365473476</ele>
        <time>2015-07-11T13:46:57Z</time>
      </trkpt>
      <trkpt lat="45.18344" lon="4.8093">
        <ele>131.01427718815</ele>
        <time>2015-07-11T13:46:59Z</time>
      </trkpt>
      <trkpt lat="45.18339" lon="4.80931">
        <ele>131.09863105117</ele>
        <time>2015-07-11T13:47:02Z</time>
      </trkpt>
      <trkpt lat="45.18332" lon="4.80937">
        <ele>131.23857991393</ele>
        <time>2015-07-11T13:47:05Z</time>
      </trkpt>
      <trkpt lat="45.1832" lon="4.80964">
        <ele>131.67917299459</ele>
        <time>2015-07-11T13:47:13Z</time>
      </trkpt>
      <trkpt lat="45.18305" lon="4.81007">
        <ele>132.03</ele>
        <time>2015-07-11T13:47:27Z</time>
      </trkpt>
      <trkpt lat="45.183" lon="4.81041">
        <ele>131.70060833864</ele>
        <time>2015-07-11T13:47:37Z</time>
      </trkpt>
      <trkpt lat="45.18302" lon="4.81077">
        <ele>131.04486890018</ele>
        <time>2015-07-11T13:47:47Z</time>
      </trkpt>
      <trkpt lat="45.18303" lon="4.81102">
        <ele>130.54797505408</ele>
        <time>2015-07-11T13:47:54Z</time>
      </trkpt>
      <trkpt lat="45.18304" lon="4.81112">
        <ele>130.3723251873</ele>
        <time>2015-07-11T13:47:57Z</time>
      </trkpt>
      <trkpt lat="45.18302" lon="4.81117">
        <ele>130.27883998397</ele>
        <time>2015-07-11T13:47:59Z</time>
      </trkpt>
      <trkpt lat="45.18302" lon="4.81117">
        <ele>130.27883998397</ele>
        <time>2015-07-11T13:47:59Z</time>
      </trkpt>
      <trkpt lat="45.18298" lon="4.81119">
        <ele>130.19</ele>
        <time>2015-07-11T13:48:01Z</time>
      </trkpt>
      <trkpt lat="45.18276" lon="4.81122">
        <ele>129.88031733719</ele>
        <time>2015-07-11T13:48:09Z</time>
      </trkpt>
      <trkpt lat="45.18239" lon="4.81122">
        <ele>129.46</ele>
        <time>2015-07-11T13:48:24Z</time>
      </trkpt>
      <trkpt lat="45.18201" lon="4.81121">
        <ele>128.64250100555</ele>
        <time>2015-07-11T13:48:39Z</time>
      </trkpt>
      <trkpt lat="45.18164" lon="4.81116">
        <ele>128.25</ele>
        <time>2015-07-11T13:48:54Z</time>
      </trkpt>
      <trkpt lat="45.18118" lon="4.81108">
        <ele>129.25012853797</ele>
        <time>2015-07-11T13:49:13Z</time>
      </trkpt>
      <trkpt lat="45.18071" lon="4.81096">
        <ele>130.02</ele>
        <time>2015-07-11T13:49:32Z</time>
      </trkpt>
      <trkpt lat="45.18009" lon="4.81075">
        <ele>128.34</ele>
        <time>2015-07-11T13:49:58Z</time>
      </trkpt>
      <trkpt lat="45.17951" lon="4.8105">
        <ele>128</ele>
        <time>2015-07-11T13:50:22Z</time>
      </trkpt>
      <trkpt lat="45.17899" lon="4.81022">
        <ele>127.79</ele>
        <time>2015-07-11T13:50:44Z</time>
      </trkpt>
      <trkpt lat="45.17794" lon="4.80966">
        <ele>126.98</ele>
        <time>2015-07-11T13:51:29Z</time>
      </trkpt>
      <trkpt lat="45.17675" lon="4.80901">
        <ele>127.53643751685</ele>
        <time>2015-07-11T13:52:20Z</time>
      </trkpt>
      <trkpt lat="45.17599" lon="4.8086">
        <ele>129.53</ele>
        <time>2015-07-11T13:52:52Z</time>
      </trkpt>
      <trkpt lat="45.17576" lon="4.80847">
        <ele>130.27</ele>
        <time>2015-07-11T13:53:02Z</time>
      </trkpt>
      <trkpt lat="45.17474" lon="4.80792">
        <ele>128.15</ele>
        <time>2015-07-11T13:53:46Z</time>
      </trkpt>
      <trkpt lat="45.17429" lon="4.80766">
        <ele>129.21</ele>
        <time>2015-07-11T13:54:06Z</time>
      </trkpt>
      <trkpt lat="45.17361" lon="4.8073">
        <ele>128.83</ele>
        <time>2015-07-11T13:54:35Z</time>
      </trkpt>
      <trkpt lat="45.17294" lon="4.80696">
        <ele>129.81441700055</ele>
        <time>2015-07-11T13:55:03Z</time>
      </trkpt>
      <trkpt lat="45.17241" lon="4.80672">
        <ele>130.5</ele>
        <time>2015-07-11T13:55:25Z</time>
      </trkpt>
      <trkpt lat="45.17153" lon="4.80644">
        <ele>129.64</ele>
        <time>2015-07-11T13:56:01Z</time>
      </trkpt>
      <trkpt lat="45.17065" lon="4.80627">
        <ele>132.1</ele>
        <time>2015-07-11T13:56:37Z</time>
      </trkpt>
      <trkpt lat="45.17015" lon="4.80617">
        <ele>133.57551490968</ele>
        <time>2015-07-11T13:56:57Z</time>
      </trkpt>
      <trkpt lat="45.1699" lon="4.80616">
        <ele>134.33</ele>
        <time>2015-07-11T13:57:07Z</time>
      </trkpt>
      <trkpt lat="45.16972" lon="4.8062">
        <ele>134.99338592773</ele>
        <time>2015-07-11T13:57:15Z</time>
      </trkpt>
      <trkpt lat="45.16956" lon="4.80626">
        <ele>135.67570758869</ele>
        <time>2015-07-11T13:57:21Z</time>
      </trkpt>
      <trkpt lat="45.16934" lon="4.80629">
        <ele>136.66465393644</ele>
        <time>2015-07-11T13:57:30Z</time>
      </trkpt>
      <trkpt lat="45.16923" lon="4.80623">
        <ele>137.29214921155</ele>
        <time>2015-07-11T13:57:35Z</time>
      </trkpt>
      <trkpt lat="45.16911" lon="4.80615">
        <ele>138</ele>
        <time>2015-07-11T13:57:40Z</time>
      </trkpt>
      <trkpt lat="45.16895" lon="4.80623">
        <ele>138.92910143441</ele>
        <time>2015-07-11T13:57:47Z</time>
      </trkpt>
      <trkpt lat="45.16875" lon="4.80635">
        <ele>140.04568186707</ele>
        <time>2015-07-11T13:57:55Z</time>
      </trkpt>
      <trkpt lat="45.16879" lon="4.80624">
        <ele>140.38562991801</ele>
        <time>2015-07-11T13:57:59Z</time>
      </trkpt>
      <trkpt lat="45.1689" lon="4.80614">
        <ele>140.73663754758</ele>
        <time>2015-07-11T13:58:04Z</time>
      </trkpt>
      <trkpt lat="45.16905" lon="4.80605">
        <ele>140.83252304093</ele>
        <time>2015-07-11T13:58:11Z</time>
      </trkpt>
      <trkpt lat="45.16908" lon="4.80599">
        <ele>140.75986800005</ele>
        <time>2015-07-11T13:58:13Z</time>
      </trkpt>
      <trkpt lat="45.16899" lon="4.80599">
        <ele>140.52</ele>
        <time>2015-07-11T13:58:16Z</time>
      </trkpt>
      <trkpt lat="45.16889" lon="4.80604">
        <ele>139.99063721959</ele>
        <time>2015-07-11T13:58:20Z</time>
      </trkpt>
      <trkpt lat="45.16876" lon="4.80616">
        <ele>138.96835722386</ele>
        <time>2015-07-11T13:58:26Z</time>
      </trkpt>
      <trkpt lat="45.16865" lon="4.80627">
        <ele>137.90460971719</ele>
        <time>2015-07-11T13:58:32Z</time>
      </trkpt>
      <trkpt lat="45.16856" lon="4.80641">
        <ele>136.94839783372</ele>
        <time>2015-07-11T13:58:37Z</time>
      </trkpt>
      <trkpt lat="45.1684" lon="4.80649">
        <ele>136.09121111679</ele>
        <time>2015-07-11T13:58:44Z</time>
      </trkpt>
      <trkpt lat="45.16829" lon="4.8065">
        <ele>135.88</ele>
        <time>2015-07-11T13:58:48Z</time>
      </trkpt>
      <trkpt lat="45.16816" lon="4.80651">
        <ele>136.09367547873</ele>
        <time>2015-07-11T13:58:54Z</time>
      </trkpt>
      <trkpt lat="45.16781" lon="4.80672">
        <ele>138.08</ele>
        <time>2015-07-11T13:59:09Z</time>
      </trkpt>
      <trkpt lat="45.16741" lon="4.80702">
        <ele>139.72204707506</ele>
        <time>2015-07-11T13:59:27Z</time>
      </trkpt>
      <trkpt lat="45.16693" lon="4.80733">
        <ele>140.21</ele>
        <time>2015-07-11T13:59:48Z</time>
      </trkpt>
      <trkpt lat="45.16668" lon="4.80752">
        <ele>140.20974642868</ele>
        <time>2015-07-11T14:00:00Z</time>
      </trkpt>
      <trkpt lat="45.16621" lon="4.80785">
        <ele>140.01</ele>
        <time>2015-07-11T14:00:21Z</time>
      </trkpt>
      <trkpt lat="45.16536" lon="4.80847">
        <ele>138.9182574775</ele>
        <time>2015-07-11T14:00:59Z</time>
      </trkpt>
      <trkpt lat="45.16527" lon="4.80854">
        <ele>138.66</ele>
        <time>2015-07-11T14:01:03Z</time>
      </trkpt>
      <trkpt lat="45.1643" lon="4.80923">
        <ele>136.29</ele>
        <time>2015-07-11T14:01:46Z</time>
      </trkpt>
      <trkpt lat="45.16376" lon="4.80955">
        <ele>137.31826482821</ele>
        <time>2015-07-11T14:02:10Z</time>
      </trkpt>
      <trkpt lat="45.16332" lon="4.80981">
        <ele>137.92</ele>
        <time>2015-07-11T14:02:29Z</time>
      </trkpt>
      <trkpt lat="45.16299" lon="4.81003">
        <ele>137.25176393735</ele>
        <time>2015-07-11T14:02:43Z</time>
      </trkpt>
      <trkpt lat="45.16272" lon="4.81026">
        <ele>136.22618420221</ele>
        <time>2015-07-11T14:02:56Z</time>
      </trkpt>
      <trkpt lat="45.16252" lon="4.81046">
        <ele>135.48</ele>
        <time>2015-07-11T14:03:06Z</time>
      </trkpt>
      <trkpt lat="45.16239" lon="4.81063">
        <ele>135.09388918132</ele>
        <time>2015-07-11T14:03:13Z</time>
      </trkpt>
      <trkpt lat="45.16225" lon="4.81086">
        <ele>134.84780447116</ele>
        <time>2015-07-11T14:03:21Z</time>
      </trkpt>
      <trkpt lat="45.1621" lon="4.81102">
        <ele>134.83949997599</ele>
        <time>2015-07-11T14:03:29Z</time>
      </trkpt>
      <trkpt lat="45.1619" lon="4.81112">
        <ele>135.1</ele>
        <time>2015-07-11T14:03:38Z</time>
      </trkpt>
      <trkpt lat="45.16173" lon="4.81125">
        <ele>135.53164542214</ele>
        <time>2015-07-11T14:03:45Z</time>
      </trkpt>
      <trkpt lat="45.16157" lon="4.81138">
        <ele>136.02552461259</ele>
        <time>2015-07-11T14:03:53Z</time>
      </trkpt>
      <trkpt lat="45.16139" lon="4.81164">
        <ele>136.42</ele>
        <time>2015-07-11T14:04:03Z</time>
      </trkpt>
      <trkpt lat="45.16117" lon="4.81198">
        <ele>136.24</ele>
        <time>2015-07-11T14:04:16Z</time>
      </trkpt>
      <trkpt lat="45.16065" lon="4.81288">
        <ele>135.873314705</ele>
        <time>2015-07-11T14:04:49Z</time>
      </trkpt>
      <trkpt lat="45.16039" lon="4.81348">
        <ele>135.15470682226</ele>
        <time>2015-07-11T14:05:09Z</time>
      </trkpt>
      <trkpt lat="45.16036" lon="4.81365">
        <ele>134.81</ele>
        <time>2015-07-11T14:05:14Z</time>
      </trkpt>
      <trkpt lat="45.16031" lon="4.81401">
        <ele>133.83821958908</ele>
        <time>2015-07-11T14:05:24Z</time>
      </trkpt>
      <trkpt lat="45.16022" lon="4.81428">
        <ele>132.94</ele>
        <time>2015-07-11T14:05:32Z</time>
      </trkpt>
      <trkpt lat="45.15962" lon="4.81583">
        <ele>129.3</ele>
        <time>2015-07-11T14:06:23Z</time>
      </trkpt>
      <trkpt lat="45.15949" lon="4.81616">
        <ele>129.3911054088</ele>
        <time>2015-07-11T14:06:33Z</time>
      </trkpt>
      <trkpt lat="45.15927" lon="4.81676">
        <ele>129.22</ele>
        <time>2015-07-11T14:06:52Z</time>
      </trkpt>
      <trkpt lat="45.15923" lon="4.81692">
        <ele>128.86733898883</ele>
        <time>2015-07-11T14:06:57Z</time>
      </trkpt>
      <trkpt lat="45.15922" lon="4.81708">
        <ele>128.44389372205</ele>
        <time>2015-07-11T14:07:02Z</time>
      </trkpt>
      <trkpt lat="45.15926" lon="4.8173">
        <ele>127.69678934916</ele>
        <time>2015-07-11T14:07:08Z</time>
      </trkpt>
      <trkpt lat="45.15932" lon="4.8175">
        <ele>126.95682968537</ele>
        <time>2015-07-11T14:07:14Z</time>
      </trkpt>
      <trkpt lat="45.15933" lon="4.8177">
        <ele>126.29226830269</ele>
        <time>2015-07-11T14:07:20Z</time>
      </trkpt>
      <trkpt lat="45.15933" lon="4.81794">
        <ele>125.68</ele>
        <time>2015-07-11T14:07:27Z</time>
      </trkpt>
      <trkpt lat="45.15924" lon="4.81845">
        <ele>125.19</ele>
        <time>2015-07-11T14:07:42Z</time>
      </trkpt>
      <trkpt lat="45.15913" lon="4.81937">
        <ele>125.99557678388</ele>
        <time>2015-07-11T14:08:08Z</time>
      </trkpt>
      <trkpt lat="45.15905" lon="4.81994">
        <ele>127.01</ele>
        <time>2015-07-11T14:08:25Z</time>
      </trkpt>
      <trkpt lat="45.15896" lon="4.82055">
        <ele>128.07</ele>
        <time>2015-07-11T14:08:42Z</time>
      </trkpt>
      <trkpt lat="45.15873" lon="4.82158">
        <ele>128.95619739041</ele>
        <time>2015-07-11T14:09:13Z</time>
      </trkpt>
      <trkpt lat="45.15861" lon="4.82204">
        <ele>129.11</ele>
        <time>2015-07-11T14:09:27Z</time>
      </trkpt>
      <trkpt lat="45.1585" lon="4.82242">
        <ele>129.20099706013</ele>
        <time>2015-07-11T14:09:38Z</time>
      </trkpt>
      <trkpt lat="45.15817" lon="4.82325">
        <ele>129.05</ele>
        <time>2015-07-11T14:10:05Z</time>
      </trkpt>
      <trkpt lat="45.15801" lon="4.82357">
        <ele>128.75023674924</ele>
        <time>2015-07-11T14:10:16Z</time>
      </trkpt>
      <trkpt lat="45.15785" lon="4.82382">
        <ele>128.50029447758</ele>
        <time>2015-07-11T14:10:26Z</time>
      </trkpt>
      <trkpt lat="45.1577" lon="4.82401">
        <ele>128.38</ele>
        <time>2015-07-11T14:10:34Z</time>
      </trkpt>
      <trkpt lat="45.15737" lon="4.82441">
        <ele>128.27</ele>
        <time>2015-07-11T14:10:51Z</time>
      </trkpt>
      <trkpt lat="45.15665" lon="4.82488">
        <ele>126.43</ele>
        <time>2015-07-11T14:11:23Z</time>
      </trkpt>
      <trkpt lat="45.15601" lon="4.82507">
        <ele>126.08</ele>
        <time>2015-07-11T14:11:49Z</time>
      </trkpt>
      <trkpt lat="45.15523" lon="4.82513">
        <ele>126.12699854519</ele>
        <time>2015-07-11T14:12:20Z</time>
      </trkpt>
      <trkpt lat="45.15448" lon="4.82499">
        <ele>126.65</ele>
        <time>2015-07-11T14:12:51Z</time>
      </trkpt>
      <trkpt lat="45.1537" lon="4.82468">
        <ele>127.73</ele>
        <time>2015-07-11T14:13:23Z</time>
      </trkpt>
      <trkpt lat="45.15312" lon="4.82427">
        <ele>127.52</ele>
        <time>2015-07-11T14:13:49Z</time>
      </trkpt>
      <trkpt lat="45.15245" lon="4.82372">
        <ele>125.96</ele>
        <time>2015-07-11T14:14:20Z</time>
      </trkpt>
      <trkpt lat="45.1517" lon="4.8231">
        <ele>123.79</ele>
        <time>2015-07-11T14:14:55Z</time>
      </trkpt>
      <trkpt lat="45.15087" lon="4.8224">
        <ele>123.84</ele>
        <time>2015-07-11T14:15:34Z</time>
      </trkpt>
      <trkpt lat="45.15053" lon="4.82212">
        <ele>123.94</ele>
        <time>2015-07-11T14:15:49Z</time>
      </trkpt>
      <trkpt lat="45.14988" lon="4.82154">
        <ele>124.25315419341</ele>
        <time>2015-07-11T14:16:20Z</time>
      </trkpt>
      <trkpt lat="45.1496" lon="4.82129">
        <ele>124.02</ele>
        <time>2015-07-11T14:16:33Z</time>
      </trkpt>
      <trkpt lat="45.14939" lon="4.8211">
        <ele>123.60224935486</ele>
        <time>2015-07-11T14:16:43Z</time>
      </trkpt>
      <trkpt lat="45.14908" lon="4.82085">
        <ele>123.37</ele>
        <time>2015-07-11T14:16:58Z</time>
      </trkpt>
      <trkpt lat="45.14859" lon="4.8204">
        <ele>125.04</ele>
        <time>2015-07-11T14:17:21Z</time>
      </trkpt>
      <trkpt lat="45.14779" lon="4.81962">
        <ele>125.79</ele>
        <time>2015-07-11T14:18:00Z</time>
      </trkpt>
      <trkpt lat="45.14682" lon="4.81862">
        <ele>128.61</ele>
        <time>2015-07-11T14:18:48Z</time>
      </trkpt>
      <trkpt lat="45.14665" lon="4.81845">
        <ele>129.54</ele>
        <time>2015-07-11T14:18:56Z</time>
      </trkpt>
      <trkpt lat="45.14555" lon="4.81736">
        <ele>127.05</ele>
        <time>2015-07-11T14:19:50Z</time>
      </trkpt>
      <trkpt lat="45.14485" lon="4.81661">
        <ele>126.67122836142</ele>
        <time>2015-07-11T14:20:25Z</time>
      </trkpt>
      <trkpt lat="45.14471" lon="4.81646">
        <ele>126.81247741792</ele>
        <time>2015-07-11T14:20:32Z</time>
      </trkpt>
      <trkpt lat="45.14422" lon="4.81599">
        <ele>127.04</ele>
        <time>2015-07-11T14:20:56Z</time>
      </trkpt>
      <trkpt lat="45.14352" lon="4.81531">
        <ele>125.74</ele>
        <time>2015-07-11T14:21:30Z</time>
      </trkpt>
      <trkpt lat="45.14342" lon="4.8152">
        <ele>125.48</ele>
        <time>2015-07-11T14:21:35Z</time>
      </trkpt>
      <trkpt lat="45.14241" lon="4.81412">
        <ele>123.36</ele>
        <time>2015-07-11T14:22:26Z</time>
      </trkpt>
      <trkpt lat="45.14193" lon="4.81351">
        <ele>123.01430815544</ele>
        <time>2015-07-11T14:22:52Z</time>
      </trkpt>
      <trkpt lat="45.14171" lon="4.81328">
        <ele>122.99</ele>
        <time>2015-07-11T14:23:02Z</time>
      </trkpt>
      <trkpt lat="45.14158" lon="4.81297">
        <ele>123.05454869051</ele>
        <time>2015-07-11T14:23:13Z</time>
      </trkpt>
      <trkpt lat="45.1415" lon="4.81276">
        <ele>123.25729524975</ele>
        <time>2015-07-11T14:23:19Z</time>
      </trkpt>
      <trkpt lat="45.14149" lon="4.81264">
        <ele>123.4498031835</ele>
        <time>2015-07-11T14:23:23Z</time>
      </trkpt>
      <trkpt lat="45.1414" lon="4.8125">
        <ele>123.87900228795</ele>
        <time>2015-07-11T14:23:28Z</time>
      </trkpt>
      <trkpt lat="45.14129" lon="4.81246">
        <ele>124.44</ele>
        <time>2015-07-11T14:23:33Z</time>
      </trkpt>
      <trkpt lat="45.14108" lon="4.81245">
        <ele>125.89190271161</ele>
        <time>2015-07-11T14:23:41Z</time>
      </trkpt>
      <trkpt lat="45.14092" lon="4.81228">
        <ele>127.29426452959</ele>
        <time>2015-07-11T14:23:49Z</time>
      </trkpt>
      <trkpt lat="45.14076" lon="4.8121">
        <ele>128.27</ele>
        <time>2015-07-11T14:23:57Z</time>
      </trkpt>
      <trkpt lat="45.14029" lon="4.81146">
        <ele>127.48</ele>
        <time>2015-07-11T14:24:23Z</time>
      </trkpt>
      <trkpt lat="45.13986" lon="4.81087">
        <ele>127.67354423418</ele>
        <time>2015-07-11T14:24:47Z</time>
      </trkpt>
      <trkpt lat="45.13948" lon="4.8103">
        <ele>128.88</ele>
        <time>2015-07-11T14:25:10Z</time>
      </trkpt>
      <trkpt lat="45.13909" lon="4.80971">
        <ele>129.36</ele>
        <time>2015-07-11T14:25:32Z</time>
      </trkpt>
      <trkpt lat="45.13876" lon="4.80914">
        <ele>128.23659161668</ele>
        <time>2015-07-11T14:25:53Z</time>
      </trkpt>
      <trkpt lat="45.13869" lon="4.809">
        <ele>127.84173296247</ele>
        <time>2015-07-11T14:25:58Z</time>
      </trkpt>
      <trkpt lat="45.13864" lon="4.80878">
        <ele>127.32264490014</ele>
        <time>2015-07-11T14:26:05Z</time>
      </trkpt>
      <trkpt lat="45.13866" lon="4.80864">
        <ele>127.01445688331</ele>
        <time>2015-07-11T14:26:09Z</time>
      </trkpt>
      <trkpt lat="45.13866" lon="4.80855">
        <ele>126.8482816755</ele>
        <time>2015-07-11T14:26:11Z</time>
      </trkpt>
      <trkpt lat="45.13863" lon="4.80848">
        <ele>126.68715614766</ele>
        <time>2015-07-11T14:26:14Z</time>
      </trkpt>
      <trkpt lat="45.13855" lon="4.80828">
        <ele>126.35</ele>
        <time>2015-07-11T14:26:20Z</time>
      </trkpt>
      <trkpt lat="45.1384" lon="4.80794">
        <ele>126.05441857478</ele>
        <time>2015-07-11T14:26:31Z</time>
      </trkpt>
      <trkpt lat="45.13823" lon="4.80752">
        <ele>125.98</ele>
        <time>2015-07-11T14:26:45Z</time>
      </trkpt>
      <trkpt lat="45.13809" lon="4.80717">
        <ele>125.9091559423</ele>
        <time>2015-07-11T14:26:57Z</time>
      </trkpt>
      <trkpt lat="45.13797" lon="4.80692">
        <ele>125.76892748109</ele>
        <time>2015-07-11T14:27:05Z</time>
      </trkpt>
      <trkpt lat="45.13785" lon="4.80679">
        <ele>125.59970447925</ele>
        <time>2015-07-11T14:27:11Z</time>
      </trkpt>
      <trkpt lat="45.13766" lon="4.80657">
        <ele>125.17</ele>
        <time>2015-07-11T14:27:21Z</time>
      </trkpt>
      <trkpt lat="45.1373" lon="4.80584">
        <ele>123.77</ele>
        <time>2015-07-11T14:27:46Z</time>
      </trkpt>
      <trkpt lat="45.13688" lon="4.80508">
        <ele>124.39</ele>
        <time>2015-07-11T14:28:14Z</time>
      </trkpt>
      <trkpt lat="45.13634" lon="4.80443">
        <ele>125.1</ele>
        <time>2015-07-11T14:28:42Z</time>
      </trkpt>
      <trkpt lat="45.13582" lon="4.804">
        <ele>125.76028263255</ele>
        <time>2015-07-11T14:29:06Z</time>
      </trkpt>
      <trkpt lat="45.1355" lon="4.8038">
        <ele>126.37149429487</ele>
        <time>2015-07-11T14:29:20Z</time>
      </trkpt>
      <trkpt lat="45.13528" lon="4.80362">
        <ele>126.97</ele>
        <time>2015-07-11T14:29:30Z</time>
      </trkpt>
      <trkpt lat="45.13508" lon="4.80332">
        <ele>127.80964037187</ele>
        <time>2015-07-11T14:29:42Z</time>
      </trkpt>
      <trkpt lat="45.13495" lon="4.80314">
        <ele>128.26595515367</ele>
        <time>2015-07-11T14:29:49Z</time>
      </trkpt>
      <trkpt lat="45.13483" lon="4.80305">
        <ele>128.51505633119</ele>
        <time>2015-07-11T14:29:54Z</time>
      </trkpt>
      <trkpt lat="45.13456" lon="4.80295">
        <ele>128.63</ele>
        <time>2015-07-11T14:30:06Z</time>
      </trkpt>
      <trkpt lat="45.13424" lon="4.80296">
        <ele>127.90787116779</ele>
        <time>2015-07-11T14:30:19Z</time>
      </trkpt>
      <trkpt lat="45.1341" lon="4.80286">
        <ele>127.33354606645</ele>
        <time>2015-07-11T14:30:25Z</time>
      </trkpt>
      <trkpt lat="45.13393" lon="4.80274">
        <ele>126.6427578131</ele>
        <time>2015-07-11T14:30:32Z</time>
      </trkpt>
      <trkpt lat="45.13376" lon="4.80269">
        <ele>126.06</ele>
        <time>2015-07-11T14:30:39Z</time>
      </trkpt>
      <trkpt lat="45.13361" lon="4.80268">
        <ele>125.71137721472</ele>
        <time>2015-07-11T14:30:45Z</time>
      </trkpt>
      <trkpt lat="45.13324" lon="4.80268">
        <ele>125.26</ele>
        <time>2015-07-11T14:31:00Z</time>
      </trkpt>
      <trkpt lat="45.13288" lon="4.80259">
        <ele>125.14733020179</ele>
        <time>2015-07-11T14:31:15Z</time>
      </trkpt>
      <trkpt lat="45.13242" lon="4.80256">
        <ele>124.77</ele>
        <time>2015-07-11T14:31:33Z</time>
      </trkpt>
      <trkpt lat="45.13208" lon="4.80248">
        <ele>124.00849838155</ele>
        <time>2015-07-11T14:31:47Z</time>
      </trkpt>
      <trkpt lat="45.13186" lon="4.80245">
        <ele>123.66850575807</ele>
        <time>2015-07-11T14:31:56Z</time>
      </trkpt>
      <trkpt lat="45.13169" lon="4.80246">
        <ele>123.67839152131</ele>
        <time>2015-07-11T14:32:03Z</time>
      </trkpt>
      <trkpt lat="45.13155" lon="4.8025">
        <ele>123.97680186863</ele>
        <time>2015-07-11T14:32:08Z</time>
      </trkpt>
      <trkpt lat="45.13139" lon="4.8025">
        <ele>124.67</ele>
        <time>2015-07-11T14:32:15Z</time>
      </trkpt>
      <trkpt lat="45.13114" lon="4.80245">
        <ele>126.48</ele>
        <time>2015-07-11T14:32:25Z</time>
      </trkpt>
      <trkpt lat="45.13012" lon="4.80227">
        <ele>127.68</ele>
        <time>2015-07-11T14:33:06Z</time>
      </trkpt>
      <trkpt lat="45.12934" lon="4.80212">
        <ele>127.57</ele>
        <time>2015-07-11T14:33:38Z</time>
      </trkpt>
      <trkpt lat="45.12861" lon="4.80198">
        <ele>127.81486442056</ele>
        <time>2015-07-11T14:34:07Z</time>
      </trkpt>
      <trkpt lat="45.12838" lon="4.80187">
        <ele>127.90670901457</ele>
        <time>2015-07-11T14:34:17Z</time>
      </trkpt>
      <trkpt lat="45.12813" lon="4.8018">
        <ele>128</ele>
        <time>2015-07-11T14:34:27Z</time>
      </trkpt>
      <trkpt lat="45.12787" lon="4.80176">
        <ele>128.05960973854</ele>
        <time>2015-07-11T14:34:37Z</time>
      </trkpt>
      <trkpt lat="45.12757" lon="4.8017">
        <ele>127.92</ele>
        <time>2015-07-11T14:34:49Z</time>
      </trkpt>
      <trkpt lat="45.12724" lon="4.80167">
        <ele>127.40604984485</ele>
        <time>2015-07-11T14:35:03Z</time>
      </trkpt>
      <trkpt lat="45.12703" lon="4.8017">
        <ele>127.11988367549</ele>
        <time>2015-07-11T14:35:11Z</time>
      </trkpt>
      <trkpt lat="45.12679" lon="4.80167">
        <ele>127.13</ele>
        <time>2015-07-11T14:35:21Z</time>
      </trkpt>
      <trkpt lat="45.12628" lon="4.80152">
        <ele>128.16</ele>
        <time>2015-07-11T14:35:41Z</time>
      </trkpt>
      <trkpt lat="45.12544" lon="4.80137">
        <ele>126.64074145287</ele>
        <time>2015-07-11T14:36:15Z</time>
      </trkpt>
      <trkpt lat="45.12509" lon="4.80141">
        <ele>125.87129881342</ele>
        <time>2015-07-11T14:36:29Z</time>
      </trkpt>
      <trkpt lat="45.12499" lon="4.80137">
        <ele>125.78</ele>
        <time>2015-07-11T14:36:34Z</time>
      </trkpt>
      <trkpt lat="45.12484" lon="4.80126">
        <ele>125.81312698223</ele>
        <time>2015-07-11T14:36:40Z</time>
      </trkpt>
      <trkpt lat="45.12441" lon="4.80115">
        <ele>126.37191185028</ele>
        <time>2015-07-11T14:36:58Z</time>
      </trkpt>
      <trkpt lat="45.12422" lon="4.80107">
        <ele>126.51</ele>
        <time>2015-07-11T14:37:06Z</time>
      </trkpt>
      <trkpt lat="45.12407" lon="4.80104">
        <ele>126.44632050502</ele>
        <time>2015-07-11T14:37:12Z</time>
      </trkpt>
      <trkpt lat="45.12385" lon="4.80106">
        <ele>126.17381979833</ele>
        <time>2015-07-11T14:37:21Z</time>
      </trkpt>
      <trkpt lat="45.12363" lon="4.80099">
        <ele>125.86</ele>
        <time>2015-07-11T14:37:30Z</time>
      </trkpt>
      <trkpt lat="45.12326" lon="4.80094">
        <ele>125.60590810135</ele>
        <time>2015-07-11T14:37:44Z</time>
      </trkpt>
      <trkpt lat="45.12299" lon="4.80095">
        <ele>125.64</ele>
        <time>2015-07-11T14:37:55Z</time>
      </trkpt>
      <trkpt lat="45.12233" lon="4.80104">
        <ele>126.08814071318</ele>
        <time>2015-07-11T14:38:22Z</time>
      </trkpt>
      <trkpt lat="45.12209" lon="4.80116">
        <ele>126.14390130491</ele>
        <time>2015-07-11T14:38:32Z</time>
      </trkpt>
      <trkpt lat="45.122" lon="4.8012">
        <ele>126.11404865225</ele>
        <time>2015-07-11T14:38:36Z</time>
      </trkpt>
      <trkpt lat="45.1218" lon="4.80121">
        <ele>125.94</ele>
        <time>2015-07-11T14:38:44Z</time>
      </trkpt>
      <trkpt lat="45.12164" lon="4.80127">
        <ele>125.65612024128</ele>
        <time>2015-07-11T14:38:50Z</time>
      </trkpt>
      <trkpt lat="45.1215" lon="4.80145">
        <ele>125.20739727333</ele>
        <time>2015-07-11T14:38:58Z</time>
      </trkpt>
      <trkpt lat="45.12131" lon="4.80154">
        <ele>124.65926350066</ele>
        <time>2015-07-11T14:39:06Z</time>
      </trkpt>
      <trkpt lat="45.12113" lon="4.80156">
        <ele>124.14</ele>
        <time>2015-07-11T14:39:14Z</time>
      </trkpt>
      <trkpt lat="45.12099" lon="4.80165">
        <ele>123.74700053548</ele>
        <time>2015-07-11T14:39:20Z</time>
      </trkpt>
      <trkpt lat="45.12087" lon="4.80173">
        <ele>123.42687524015</ele>
        <time>2015-07-11T14:39:25Z</time>
      </trkpt>
      <trkpt lat="45.12087" lon="4.80173">
        <ele>123.42687524015</ele>
        <time>2015-07-11T14:39:25Z</time>
      </trkpt>
      <trkpt lat="45.12077" lon="4.80204">
        <ele>122.90403466957</ele>
        <time>2015-07-11T14:39:34Z</time>
      </trkpt>
      <trkpt lat="45.12071" lon="4.80225">
        <ele>122.6</ele>
        <time>2015-07-11T14:39:41Z</time>
      </trkpt>
      <trkpt lat="45.12061" lon="4.80266">
        <ele>122.15998671551</ele>
        <time>2015-07-11T14:39:53Z</time>
      </trkpt>
      <trkpt lat="45.12051" lon="4.80323">
        <ele>121.91883158808</ele>
        <time>2015-07-11T14:40:10Z</time>
      </trkpt>
      <trkpt lat="45.12051" lon="4.80344">
        <ele>121.96504980507</ele>
        <time>2015-07-11T14:40:16Z</time>
      </trkpt>
      <trkpt lat="45.12046" lon="4.80365">
        <ele>122.1</ele>
        <time>2015-07-11T14:40:22Z</time>
      </trkpt>
      <trkpt lat="45.1202" lon="4.80399">
        <ele>122.65251618754</ele>
        <time>2015-07-11T14:40:36Z</time>
      </trkpt>
      <trkpt lat="45.11999" lon="4.80431">
        <ele>122.99</ele>
        <time>2015-07-11T14:40:48Z</time>
      </trkpt>
      <trkpt lat="45.11983" lon="4.80462">
        <ele>122.89046687985</ele>
        <time>2015-07-11T14:40:59Z</time>
      </trkpt>
      <trkpt lat="45.11958" lon="4.80492">
        <ele>122.5</ele>
        <time>2015-07-11T14:41:13Z</time>
      </trkpt>
      <trkpt lat="45.1192" lon="4.80539">
        <ele>122.02</ele>
        <time>2015-07-11T14:41:33Z</time>
      </trkpt>
      <trkpt lat="45.11856" lon="4.80601">
        <ele>121.7137519511</ele>
        <time>2015-07-11T14:42:04Z</time>
      </trkpt>
      <trkpt lat="45.11806" lon="4.80645">
        <ele>121.82</ele>
        <time>2015-07-11T14:42:27Z</time>
      </trkpt>
      <trkpt lat="45.11775" lon="4.80663">
        <ele>121.99</ele>
        <time>2015-07-11T14:42:41Z</time>
      </trkpt>
      <trkpt lat="45.11658" lon="4.80748">
        <ele>123.02</ele>
        <time>2015-07-11T14:43:33Z</time>
      </trkpt>
      <trkpt lat="45.11616" lon="4.80779">
        <ele>123.88217130199</ele>
        <time>2015-07-11T14:43:52Z</time>
      </trkpt>
      <trkpt lat="45.11583" lon="4.80809">
        <ele>124.41</ele>
        <time>2015-07-11T14:44:08Z</time>
      </trkpt>
      <trkpt lat="45.1156" lon="4.80833">
        <ele>124.43</ele>
        <time>2015-07-11T14:44:19Z</time>
      </trkpt>
      <trkpt lat="45.11491" lon="4.8089">
        <ele>123.54</ele>
        <time>2015-07-11T14:44:51Z</time>
      </trkpt>
      <trkpt lat="45.11438" lon="4.80938">
        <ele>124.04924397064</ele>
        <time>2015-07-11T14:45:17Z</time>
      </trkpt>
      <trkpt lat="45.11409" lon="4.80962">
        <ele>124.43246458529</ele>
        <time>2015-07-11T14:45:30Z</time>
      </trkpt>
      <trkpt lat="45.11382" lon="4.80986">
        <ele>124.49392578771</ele>
        <time>2015-07-11T14:45:43Z</time>
      </trkpt>
      <trkpt lat="45.11373" lon="4.80997">
        <ele>124.38</ele>
        <time>2015-07-11T14:45:47Z</time>
      </trkpt>
      <trkpt lat="45.1136" lon="4.81014">
        <ele>124.0531833382</ele>
        <time>2015-07-11T14:45:55Z</time>
      </trkpt>
      <trkpt lat="45.11347" lon="4.81034">
        <ele>123.58765767395</ele>
        <time>2015-07-11T14:46:02Z</time>
      </trkpt>
      <trkpt lat="45.11331" lon="4.81046">
        <ele>123.1606658652</ele>
        <time>2015-07-11T14:46:10Z</time>
      </trkpt>
      <trkpt lat="45.11316" lon="4.81051">
        <ele>122.92</ele>
        <time>2015-07-11T14:46:16Z</time>
      </trkpt>
      <trkpt lat="45.11254" lon="4.81083">
        <ele>123</ele>
        <time>2015-07-11T14:46:42Z</time>
      </trkpt>
      <trkpt lat="45.11223" lon="4.81114">
        <ele>122.63748723557</ele>
        <time>2015-07-11T14:46:57Z</time>
      </trkpt>
      <trkpt lat="45.11201" lon="4.81142">
        <ele>122.14059281736</ele>
        <time>2015-07-11T14:47:09Z</time>
      </trkpt>
      <trkpt lat="45.11182" lon="4.8118">
        <ele>121.65</ele>
        <time>2015-07-11T14:47:22Z</time>
      </trkpt>
      <trkpt lat="45.11169" lon="4.8121">
        <ele>121.47198390719</ele>
        <time>2015-07-11T14:47:32Z</time>
      </trkpt>
      <trkpt lat="45.11163" lon="4.81219">
        <ele>121.44048559287</ele>
        <time>2015-07-11T14:47:36Z</time>
      </trkpt>
      <trkpt lat="45.11153" lon="4.81226">
        <ele>121.40903838739</ele>
        <time>2015-07-11T14:47:40Z</time>
      </trkpt>
      <trkpt lat="45.11133" lon="4.8123">
        <ele>121.35</ele>
        <time>2015-07-11T14:47:48Z</time>
      </trkpt>
      <trkpt lat="45.11069" lon="4.81242">
        <ele>121.02755789166</ele>
        <time>2015-07-11T14:48:14Z</time>
      </trkpt>
      <trkpt lat="45.11041" lon="4.81249">
        <ele>121</ele>
        <time>2015-07-11T14:48:26Z</time>
      </trkpt>
      <trkpt lat="45.11014" lon="4.81263">
        <ele>121.12676000504</ele>
        <time>2015-07-11T14:48:37Z</time>
      </trkpt>
      <trkpt lat="45.10987" lon="4.81286">
        <ele>121.21</ele>
        <time>2015-07-11T14:48:50Z</time>
      </trkpt>
      <trkpt lat="45.10957" lon="4.81316">
        <ele>120.9778147805</ele>
        <time>2015-07-11T14:49:04Z</time>
      </trkpt>
      <trkpt lat="45.10932" lon="4.81356">
        <ele>120.69</ele>
        <time>2015-07-11T14:49:19Z</time>
      </trkpt>
      <trkpt lat="45.10911" lon="4.81406">
        <ele>120.77768808243</ele>
        <time>2015-07-11T14:49:36Z</time>
      </trkpt>
      <trkpt lat="45.10881" lon="4.81467">
        <ele>121.26</ele>
        <time>2015-07-11T14:49:57Z</time>
      </trkpt>
      <trkpt lat="45.10821" lon="4.8158">
        <ele>121.99</ele>
        <time>2015-07-11T14:50:37Z</time>
      </trkpt>
      <trkpt lat="45.10786" lon="4.81649">
        <ele>122.1973983417</ele>
        <time>2015-07-11T14:51:01Z</time>
      </trkpt>
      <trkpt lat="45.10772" lon="4.81672">
        <ele>122.29</ele>
        <time>2015-07-11T14:51:10Z</time>
      </trkpt>
      <trkpt lat="45.10748" lon="4.81701">
        <ele>122.45019170364</ele>
        <time>2015-07-11T14:51:22Z</time>
      </trkpt>
      <trkpt lat="45.1072" lon="4.81731">
        <ele>122.49</ele>
        <time>2015-07-11T14:51:36Z</time>
      </trkpt>
      <trkpt lat="45.10637" lon="4.81809">
        <ele>121.79</ele>
        <time>2015-07-11T14:52:16Z</time>
      </trkpt>
      <trkpt lat="45.10601" lon="4.81847">
        <ele>122.09</ele>
        <time>2015-07-11T14:52:34Z</time>
      </trkpt>
      <trkpt lat="45.10553" lon="4.8191">
        <ele>122.29437960263</ele>
        <time>2015-07-11T14:53:01Z</time>
      </trkpt>
      <trkpt lat="45.10514" lon="4.81946">
        <ele>122.4</ele>
        <time>2015-07-11T14:53:19Z</time>
      </trkpt>
      <trkpt lat="45.10486" lon="4.8197">
        <ele>122.58</ele>
        <time>2015-07-11T14:53:32Z</time>
      </trkpt>
      <trkpt lat="45.10411" lon="4.82036">
        <ele>122.79</ele>
        <time>2015-07-11T14:54:08Z</time>
      </trkpt>
      <trkpt lat="45.10357" lon="4.82104">
        <ele>122.92492680158</ele>
        <time>2015-07-11T14:54:37Z</time>
      </trkpt>
      <trkpt lat="45.10351" lon="4.82118">
        <ele>122.98230807233</ele>
        <time>2015-07-11T14:54:41Z</time>
      </trkpt>
      <trkpt lat="45.10351" lon="4.82118">
        <ele>122.98230807233</ele>
        <time>2015-07-11T14:54:41Z</time>
      </trkpt>
      <trkpt lat="45.10349" lon="4.8213">
        <ele>123.04147112412</ele>
        <time>2015-07-11T14:54:45Z</time>
      </trkpt>
      <trkpt lat="45.10343" lon="4.82146">
        <ele>123.14</ele>
        <time>2015-07-11T14:54:50Z</time>
      </trkpt>
      <trkpt lat="45.10306" lon="4.82188">
        <ele>123.74285217266</ele>
        <time>2015-07-11T14:55:09Z</time>
      </trkpt>
      <trkpt lat="45.10279" lon="4.8222">
        <ele>124.35437459774</ele>
        <time>2015-07-11T14:55:23Z</time>
      </trkpt>
      <trkpt lat="45.1027" lon="4.82231">
        <ele>124.59</ele>
        <time>2015-07-11T14:55:28Z</time>
      </trkpt>
      <trkpt lat="45.10261" lon="4.8225">
        <ele>124.92082219121</ele>
        <time>2015-07-11T14:55:34Z</time>
      </trkpt>
      <trkpt lat="45.10254" lon="4.82279">
        <ele>125.3350015749</ele>
        <time>2015-07-11T14:55:43Z</time>
      </trkpt>
      <trkpt lat="45.10248" lon="4.82293">
        <ele>125.52</ele>
        <time>2015-07-11T14:55:47Z</time>
      </trkpt>
      <trkpt lat="45.10185" lon="4.8232">
        <ele>126.01367054303</ele>
        <time>2015-07-11T14:56:14Z</time>
      </trkpt>
      <trkpt lat="45.10135" lon="4.82347">
        <ele>125.6</ele>
        <time>2015-07-11T14:56:35Z</time>
      </trkpt>
      <trkpt lat="45.10104" lon="4.82379">
        <ele>124.82</ele>
        <time>2015-07-11T14:56:50Z</time>
      </trkpt>
      <trkpt lat="45.10031" lon="4.82418">
        <ele>122.5358349024</ele>
        <time>2015-07-11T14:57:22Z</time>
      </trkpt>
      <trkpt lat="45.10007" lon="4.82425">
        <ele>122.15</ele>
        <time>2015-07-11T14:57:32Z</time>
      </trkpt>
      <trkpt lat="45.09962" lon="4.82445">
        <ele>122.27</ele>
        <time>2015-07-11T14:57:51Z</time>
      </trkpt>
      <trkpt lat="45.09863" lon="4.82484">
        <ele>122.75</ele>
        <time>2015-07-11T14:58:32Z</time>
      </trkpt>
      <trkpt lat="45.09752" lon="4.82536">
        <ele>123.41</ele>
        <time>2015-07-11T14:59:18Z</time>
      </trkpt>
      <trkpt lat="45.09749" lon="4.82538">
        <ele>123.39033332568</ele>
        <time>2015-07-11T14:59:20Z</time>
      </trkpt>
      <trkpt lat="45.09715" lon="4.82555">
        <ele>123.1</ele>
        <time>2015-07-11T14:59:34Z</time>
      </trkpt>
      <trkpt lat="45.09674" lon="4.82577">
        <ele>123.00294670126</ele>
        <time>2015-07-11T14:59:52Z</time>
      </trkpt>
      <trkpt lat="45.09648" lon="4.82587">
        <ele>123.13775009619</ele>
        <time>2015-07-11T15:00:02Z</time>
      </trkpt>
      <trkpt lat="45.09642" lon="4.826">
        <ele>123.22746517806</ele>
        <time>2015-07-11T15:00:07Z</time>
      </trkpt>
      <trkpt lat="45.09636" lon="4.82624">
        <ele>123.43</ele>
        <time>2015-07-11T15:00:14Z</time>
      </trkpt>
      <trkpt lat="45.09624" lon="4.82657">
        <ele>123.7953460734</ele>
        <time>2015-07-11T15:00:24Z</time>
      </trkpt>
      <trkpt lat="45.09608" lon="4.82695">
        <ele>124.15364596638</ele>
        <time>2015-07-11T15:00:37Z</time>
      </trkpt>
      <trkpt lat="45.09592" lon="4.82728">
        <ele>124.18</ele>
        <time>2015-07-11T15:00:48Z</time>
      </trkpt>
      <trkpt lat="45.09561" lon="4.82758">
        <ele>123.60845740005</ele>
        <time>2015-07-11T15:01:03Z</time>
      </trkpt>
      <trkpt lat="45.09517" lon="4.828">
        <ele>122.41</ele>
        <time>2015-07-11T15:01:24Z</time>
      </trkpt>
      <trkpt lat="45.09492" lon="4.82827">
        <ele>121.97273730641</ele>
        <time>2015-07-11T15:01:37Z</time>
      </trkpt>
      <trkpt lat="45.09464" lon="4.82855">
        <ele>121.65610809622</ele>
        <time>2015-07-11T15:01:51Z</time>
      </trkpt>
      <trkpt lat="45.09451" lon="4.82858">
        <ele>121.53</ele>
        <time>2015-07-11T15:01:56Z</time>
      </trkpt>
      <trkpt lat="45.09412" lon="4.8287">
        <ele>121.2</ele>
        <time>2015-07-11T15:02:12Z</time>
      </trkpt>
      <trkpt lat="45.09337" lon="4.82884">
        <ele>122.32</ele>
        <time>2015-07-11T15:02:42Z</time>
      </trkpt>
      <trkpt lat="45.09253" lon="4.82919">
        <ele>122.62754585591</ele>
        <time>2015-07-11T15:03:18Z</time>
      </trkpt>
      <trkpt lat="45.09232" lon="4.82927">
        <ele>122.62</ele>
        <time>2015-07-11T15:03:26Z</time>
      </trkpt>
      <trkpt lat="45.092" lon="4.82945">
        <ele>122.67487542018</ele>
        <time>2015-07-11T15:03:40Z</time>
      </trkpt>
      <trkpt lat="45.09173" lon="4.82966">
        <ele>122.57835711281</ele>
        <time>2015-07-11T15:03:52Z</time>
      </trkpt>
      <trkpt lat="45.09156" lon="4.82974">
        <ele>122.35</ele>
        <time>2015-07-11T15:04:00Z</time>
      </trkpt>
      <trkpt lat="45.09067" lon="4.82995">
        <ele>120.01</ele>
        <time>2015-07-11T15:04:35Z</time>
      </trkpt>
      <trkpt lat="45.09027" lon="4.83006">
        <ele>119.71983507614</ele>
        <time>2015-07-11T15:04:52Z</time>
      </trkpt>
      <trkpt lat="45.08999" lon="4.8302">
        <ele>120.02</ele>
        <time>2015-07-11T15:05:04Z</time>
      </trkpt>
      <trkpt lat="45.08971" lon="4.83034">
        <ele>120.57936921421</ele>
        <time>2015-07-11T15:05:16Z</time>
      </trkpt>
      <trkpt lat="45.08958" lon="4.83038">
        <ele>120.78</ele>
        <time>2015-07-11T15:05:21Z</time>
      </trkpt>
      <trkpt lat="45.0889" lon="4.8304">
        <ele>120.55341612753</ele>
        <time>2015-07-11T15:05:48Z</time>
      </trkpt>
      <trkpt lat="45.08855" lon="4.83047">
        <ele>120.22377121375</ele>
        <time>2015-07-11T15:06:02Z</time>
      </trkpt>
      <trkpt lat="45.08819" lon="4.83049">
        <ele>120.28</ele>
        <time>2015-07-11T15:06:17Z</time>
      </trkpt>
      <trkpt lat="45.08763" lon="4.83045">
        <ele>121.3</ele>
        <time>2015-07-11T15:06:39Z</time>
      </trkpt>
      <trkpt lat="45.087" lon="4.83032">
        <ele>121.66</ele>
        <time>2015-07-11T15:07:04Z</time>
      </trkpt>
      <trkpt lat="45.08616" lon="4.83002">
        <ele>122.32</ele>
        <time>2015-07-11T15:07:39Z</time>
      </trkpt>
      <trkpt lat="45.08568" lon="4.82979">
        <ele>122.21913724008</ele>
        <time>2015-07-11T15:08:00Z</time>
      </trkpt>
      <trkpt lat="45.0855" lon="4.8297">
        <ele>122.17420624425</ele>
        <time>2015-07-11T15:08:07Z</time>
      </trkpt>
      <trkpt lat="45.08515" lon="4.82947">
        <ele>122.34</ele>
        <time>2015-07-11T15:08:22Z</time>
      </trkpt>
      <trkpt lat="45.08496" lon="4.82931">
        <ele>122.69601705011</ele>
        <time>2015-07-11T15:08:32Z</time>
      </trkpt>
      <trkpt lat="45.08451" lon="4.82888">
        <ele>123.71022560666</ele>
        <time>2015-07-11T15:08:53Z</time>
      </trkpt>
      <trkpt lat="45.08436" lon="4.82872">
        <ele>123.88</ele>
        <time>2015-07-11T15:09:01Z</time>
      </trkpt>
      <trkpt lat="45.08414" lon="4.82857">
        <ele>123.79501785486</ele>
        <time>2015-07-11T15:09:10Z</time>
      </trkpt>
      <trkpt lat="45.08379" lon="4.82838">
        <ele>123.1</ele>
        <time>2015-07-11T15:09:25Z</time>
      </trkpt>
      <trkpt lat="45.08347" lon="4.82818">
        <ele>122.13070504649</ele>
        <time>2015-07-11T15:09:39Z</time>
      </trkpt>
      <trkpt lat="45.08329" lon="4.82807">
        <ele>121.74</ele>
        <time>2015-07-11T15:09:47Z</time>
      </trkpt>
      <trkpt lat="45.08251" lon="4.82765">
        <ele>122.07113826595</ele>
        <time>2015-07-11T15:10:21Z</time>
      </trkpt>
      <trkpt lat="45.08227" lon="4.82748">
        <ele>121.95</ele>
        <time>2015-07-11T15:10:31Z</time>
      </trkpt>
      <trkpt lat="45.08194" lon="4.82724">
        <ele>121.03874715287</ele>
        <time>2015-07-11T15:10:47Z</time>
      </trkpt>
      <trkpt lat="45.08161" lon="4.82702">
        <ele>120.33</ele>
        <time>2015-07-11T15:11:01Z</time>
      </trkpt>
      <trkpt lat="45.08134" lon="4.82684">
        <ele>120.56852942269</ele>
        <time>2015-07-11T15:11:13Z</time>
      </trkpt>
      <trkpt lat="45.08095" lon="4.82671">
        <ele>121.6109394142</ele>
        <time>2015-07-11T15:11:29Z</time>
      </trkpt>
      <trkpt lat="45.08074" lon="4.82664">
        <ele>122.15</ele>
        <time>2015-07-11T15:11:37Z</time>
      </trkpt>
      <trkpt lat="45.08059" lon="4.82656">
        <ele>122.45013151442</ele>
        <time>2015-07-11T15:11:44Z</time>
      </trkpt>
      <trkpt lat="45.08051" lon="4.8264">
        <ele>122.61570062653</ele>
        <time>2015-07-11T15:11:50Z</time>
      </trkpt>
      <trkpt lat="45.08046" lon="4.82634">
        <ele>122.66588410919</ele>
        <time>2015-07-11T15:11:52Z</time>
      </trkpt>
      <trkpt lat="45.08036" lon="4.82626">
        <ele>122.71670420121</ele>
        <time>2015-07-11T15:11:57Z</time>
      </trkpt>
      <trkpt lat="45.08022" lon="4.8262">
        <ele>122.71166796059</ele>
        <time>2015-07-11T15:12:03Z</time>
      </trkpt>
      <trkpt lat="45.07993" lon="4.82628">
        <ele>122.51</ele>
        <time>2015-07-11T15:12:14Z</time>
      </trkpt>
      <trkpt lat="45.07955" lon="4.82623">
        <ele>121.97</ele>
        <time>2015-07-11T15:12:30Z</time>
      </trkpt>
      <trkpt lat="45.07849" lon="4.82612">
        <ele>120.88</ele>
        <time>2015-07-11T15:13:12Z</time>
      </trkpt>
      <trkpt lat="45.07758" lon="4.82604">
        <ele>122.82</ele>
        <time>2015-07-11T15:13:49Z</time>
      </trkpt>
      <trkpt lat="45.07724" lon="4.82579">
        <ele>124.01670997155</ele>
        <time>2015-07-11T15:14:04Z</time>
      </trkpt>
      <trkpt lat="45.07689" lon="4.82556">
        <ele>124.67</ele>
        <time>2015-07-11T15:14:20Z</time>
      </trkpt>
      <trkpt lat="45.07658" lon="4.8252">
        <ele>124.18497852108</ele>
        <time>2015-07-11T15:14:35Z</time>
      </trkpt>
      <trkpt lat="45.07638" lon="4.82481">
        <ele>123.01</ele>
        <time>2015-07-11T15:14:49Z</time>
      </trkpt>
      <trkpt lat="45.0762" lon="4.82417">
        <ele>120.88417127363</ele>
        <time>2015-07-11T15:15:09Z</time>
      </trkpt>
      <trkpt lat="45.07621" lon="4.8236">
        <ele>119.69</ele>
        <time>2015-07-11T15:15:25Z</time>
      </trkpt>
      <trkpt lat="45.07639" lon="4.82315">
        <ele>119.60291351414</ele>
        <time>2015-07-11T15:15:39Z</time>
      </trkpt>
      <trkpt lat="45.07655" lon="4.82289">
        <ele>119.80940664872</ele>
        <time>2015-07-11T15:15:49Z</time>
      </trkpt>
      <trkpt lat="45.07664" lon="4.82277">
        <ele>119.90064302806</ele>
        <time>2015-07-11T15:15:54Z</time>
      </trkpt>
      <trkpt lat="45.07674" lon="4.82258">
        <ele>119.93</ele>
        <time>2015-07-11T15:16:01Z</time>
      </trkpt>
      <trkpt lat="45.07681" lon="4.82242">
        <ele>119.84214392368</ele>
        <time>2015-07-11T15:16:06Z</time>
      </trkpt>
      <trkpt lat="45.0768" lon="4.82223">
        <ele>119.67576951555</ele>
        <time>2015-07-11T15:16:12Z</time>
      </trkpt>
      <trkpt lat="45.07671" lon="4.82185">
        <ele>119.25</ele>
        <time>2015-07-11T15:16:23Z</time>
      </trkpt>
      <trkpt lat="45.07632" lon="4.82038">
        <ele>118.9181135337</ele>
        <time>2015-07-11T15:17:08Z</time>
      </trkpt>
      <trkpt lat="45.07631" lon="4.82034">
        <ele>118.9325767395</ele>
        <time>2015-07-11T15:17:09Z</time>
      </trkpt>
      <trkpt lat="45.07605" lon="4.81939">
        <ele>119.45</ele>
        <time>2015-07-11T15:17:38Z</time>
      </trkpt>
      <trkpt lat="45.07575" lon="4.81824">
        <ele>119.92</ele>
        <time>2015-07-11T15:18:12Z</time>
      </trkpt>
      <trkpt lat="45.07572" lon="4.81813">
        <ele>119.93</ele>
        <time>2015-07-11T15:18:16Z</time>
      </trkpt>
      <trkpt lat="45.07545" lon="4.81713">
        <ele>120.76667695743</ele>
        <time>2015-07-11T15:18:46Z</time>
      </trkpt>
      <trkpt lat="45.07533" lon="4.81667">
        <ele>121.16635409878</ele>
        <time>2015-07-11T15:19:00Z</time>
      </trkpt>
      <trkpt lat="45.0753" lon="4.81655">
        <ele>121.22187127329</ele>
        <time>2015-07-11T15:19:04Z</time>
      </trkpt>
      <trkpt lat="45.07527" lon="4.81651">
        <ele>121.23885276673</ele>
        <time>2015-07-11T15:19:05Z</time>
      </trkpt>
      <trkpt lat="45.07527" lon="4.81651">
        <ele>121.23885276673</ele>
        <time>2015-07-11T15:19:05Z</time>
      </trkpt>
      <trkpt lat="45.07523" lon="4.81652">
        <ele>121.25</ele>
        <time>2015-07-11T15:19:07Z</time>
      </trkpt>
      <trkpt lat="45.07477" lon="4.81685">
        <ele>121.12</ele>
        <time>2015-07-11T15:19:28Z</time>
      </trkpt>
      <trkpt lat="45.0742" lon="4.81728">
        <ele>121.55053134116</ele>
        <time>2015-07-11T15:19:54Z</time>
      </trkpt>
      <trkpt lat="45.07403" lon="4.81744">
        <ele>121.80903456579</ele>
        <time>2015-07-11T15:20:02Z</time>
      </trkpt>
      <trkpt lat="45.07385" lon="4.81763">
        <ele>122.10836308132</ele>
        <time>2015-07-11T15:20:10Z</time>
      </trkpt>
      <trkpt lat="45.07376" lon="4.81782">
        <ele>122.32</ele>
        <time>2015-07-11T15:20:17Z</time>
      </trkpt>
      <trkpt lat="45.07361" lon="4.81822">
        <ele>122.69572603279</ele>
        <time>2015-07-11T15:20:30Z</time>
      </trkpt>
      <trkpt lat="45.07349" lon="4.81858">
        <ele>123.02524167378</ele>
        <time>2015-07-11T15:20:41Z</time>
      </trkpt>
      <trkpt lat="45.0734" lon="4.81898">
        <ele>123.43</ele>
        <time>2015-07-11T15:20:53Z</time>
      </trkpt>
      <trkpt lat="45.07321" lon="4.81963">
        <ele>124.25</ele>
        <time>2015-07-11T15:21:13Z</time>
      </trkpt>
      <trkpt lat="45.07274" lon="4.82112">
        <ele>124.93941633598</ele>
        <time>2015-07-11T15:21:59Z</time>
      </trkpt>
      <trkpt lat="45.07271" lon="4.82119">
        <ele>124.92706408345</ele>
        <time>2015-07-11T15:22:01Z</time>
      </trkpt>
      <trkpt lat="45.0726" lon="4.82159">
        <ele>124.78304261331</ele>
        <time>2015-07-11T15:22:13Z</time>
      </trkpt>
      <trkpt lat="45.07258" lon="4.82173">
        <ele>124.7098417131</ele>
        <time>2015-07-11T15:22:18Z</time>
      </trkpt>
      <trkpt lat="45.07258" lon="4.82185">
        <ele>124.63655570382</ele>
        <time>2015-07-11T15:22:21Z</time>
      </trkpt>
      <trkpt lat="45.07262" lon="4.82197">
        <ele>124.5528738881</ele>
        <time>2015-07-11T15:22:25Z</time>
      </trkpt>
      <trkpt lat="45.07268" lon="4.82207">
        <ele>124.46</ele>
        <time>2015-07-11T15:22:28Z</time>
      </trkpt>
      <trkpt lat="45.07275" lon="4.82221">
        <ele>124.31804148839</ele>
        <time>2015-07-11T15:22:33Z</time>
      </trkpt>
      <trkpt lat="45.07283" lon="4.82244">
        <ele>124.11520498146</ele>
        <time>2015-07-11T15:22:41Z</time>
      </trkpt>
      <trkpt lat="45.07289" lon="4.82277">
        <ele>123.89762978708</ele>
        <time>2015-07-11T15:22:50Z</time>
      </trkpt>
      <trkpt lat="45.07292" lon="4.82307">
        <ele>123.84</ele>
        <time>2015-07-11T15:22:59Z</time>
      </trkpt>
      <trkpt lat="45.07293" lon="4.82347">
        <ele>123.98349585583</ele>
        <time>2015-07-11T15:23:10Z</time>
      </trkpt>
      <trkpt lat="45.07292" lon="4.82381">
        <ele>124.10098769214</ele>
        <time>2015-07-11T15:23:20Z</time>
      </trkpt>
      <trkpt lat="45.07289" lon="4.82418">
        <ele>123.95</ele>
        <time>2015-07-11T15:23:30Z</time>
      </trkpt>
      <trkpt lat="45.07282" lon="4.82459">
        <ele>123.20165383813</ele>
        <time>2015-07-11T15:23:42Z</time>
      </trkpt>
      <trkpt lat="45.07274" lon="4.825">
        <ele>122.13625854555</ele>
        <time>2015-07-11T15:23:54Z</time>
      </trkpt>
      <trkpt lat="45.07264" lon="4.82536">
        <ele>121.25</ele>
        <time>2015-07-11T15:24:05Z</time>
      </trkpt>
      <trkpt lat="45.07249" lon="4.82584">
        <ele>120.62079593669</ele>
        <time>2015-07-11T15:24:20Z</time>
      </trkpt>
      <trkpt lat="45.07233" lon="4.82631">
        <ele>120.73</ele>
        <time>2015-07-11T15:24:35Z</time>
      </trkpt>
      <trkpt lat="45.07217" lon="4.82668">
        <ele>121.27010910058</ele>
        <time>2015-07-11T15:24:47Z</time>
      </trkpt>
      <trkpt lat="45.07189" lon="4.82719">
        <ele>122.12</ele>
        <time>2015-07-11T15:25:06Z</time>
      </trkpt>
      <trkpt lat="45.07166" lon="4.82755">
        <ele>122.2768744231</ele>
        <time>2015-07-11T15:25:19Z</time>
      </trkpt>
      <trkpt lat="45.07143" lon="4.82786">
        <ele>122.22</ele>
        <time>2015-07-11T15:25:32Z</time>
      </trkpt>
      <trkpt lat="45.07114" lon="4.8282">
        <ele>122.1896156683</ele>
        <time>2015-07-11T15:25:47Z</time>
      </trkpt>
      <trkpt lat="45.07089" lon="4.82846">
        <ele>122.02263235912</ele>
        <time>2015-07-11T15:26:00Z</time>
      </trkpt>
      <trkpt lat="45.07084" lon="4.82851">
        <ele>121.95741420847</ele>
        <time>2015-07-11T15:26:02Z</time>
      </trkpt>
      <trkpt lat="45.07082" lon="4.82858">
        <ele>121.88680678868</ele>
        <time>2015-07-11T15:26:04Z</time>
      </trkpt>
      <trkpt lat="45.07084" lon="4.82863">
        <ele>121.82708524409</ele>
        <time>2015-07-11T15:26:06Z</time>
      </trkpt>
      <trkpt lat="45.07086" lon="4.82865">
        <ele>121.78</ele>
        <time>2015-07-11T15:26:07Z</time>
      </trkpt>
      <trkpt lat="45.0711" lon="4.82896">
        <ele>121.00133087334</ele>
        <time>2015-07-11T15:26:20Z</time>
      </trkpt>
      <trkpt lat="45.07115" lon="4.82902">
        <ele>120.8152984538</ele>
        <time>2015-07-11T15:26:22Z</time>
      </trkpt>
      <trkpt lat="45.07116" lon="4.82907">
        <ele>120.70112651271</ele>
        <time>2015-07-11T15:26:24Z</time>
      </trkpt>
      <trkpt lat="45.07114" lon="4.82914">
        <ele>120.5496737605</ele>
        <time>2015-07-11T15:26:26Z</time>
      </trkpt>
      <trkpt lat="45.07106" lon="4.82922">
        <ele>120.27555461701</ele>
        <time>2015-07-11T15:26:30Z</time>
      </trkpt>
      <trkpt lat="45.07075" lon="4.82952">
        <ele>119.38614776365</ele>
        <time>2015-07-11T15:26:45Z</time>
      </trkpt>
      <trkpt lat="45.07065" lon="4.82957">
        <ele>119.25</ele>
        <time>2015-07-11T15:26:49Z</time>
      </trkpt>
      <trkpt lat="45.07054" lon="4.82962">
        <ele>119.17354646411</ele>
        <time>2015-07-11T15:26:54Z</time>
      </trkpt>
      <trkpt lat="45.07045" lon="4.82971">
        <ele>119.16</ele>
        <time>2015-07-11T15:26:59Z</time>
      </trkpt>
      <trkpt lat="45.06997" lon="4.83032">
        <ele>119.64319846007</ele>
        <time>2015-07-11T15:27:24Z</time>
      </trkpt>
      <trkpt lat="45.06975" lon="4.83054">
        <ele>120.07841497071</ele>
        <time>2015-07-11T15:27:35Z</time>
      </trkpt>
      <trkpt lat="45.06947" lon="4.83018">
        <ele>120.91</ele>
        <time>2015-07-11T15:27:50Z</time>
      </trkpt>
      <trkpt lat="45.06934" lon="4.83037">
        <ele>121.38</ele>
        <time>2015-07-11T15:27:58Z</time>
      </trkpt>
    </trkseg>
  </trk>
</gpx>